<?xml version='1.0' encoding='UTF-8'?>
<gpx xmlns="http://www.topografix.com/GPX/1/1" creator="www.balnam.be" version="1.1" xmlns:xsi="http://www.w3.org/2001/XMLSchema-instance" xsi:schemaLocation="http://www.topografix.com/GPX/1/1 http://www.topografix.com/GPX/1/1/gpx.xsd">
<trk>
<name>ncvpt1</name>
<cmt>r</cmt>
<desc>Petigny Chemin n°1 Rue Général de Monge</desc>
<link href="https://chemins.be/petigny/chemin/1"/><trkseg>
<trkpt lat="50.062598" lon="4.543070"><time>2026-05-06T21:24:49Z</time></trkpt>
<trkpt lat="50.062083" lon="4.538934"><time>2026-05-06T21:34:49Z</time></trkpt>
<trkpt lat="50.060284" lon="4.533620"><time>2026-05-06T21:44:49Z</time></trkpt>
<trkpt lat="50.059601" lon="4.533185"><time>2026-05-06T21:54:49Z</time></trkpt>
<trkpt lat="50.058596" lon="4.531771"><time>2026-05-06T22:04:49Z</time></trkpt>
<trkpt lat="50.057744" lon="4.530204"><time>2026-05-06T22:14:49Z</time></trkpt>
<trkpt lat="50.056333" lon="4.523580"><time>2026-05-06T22:24:49Z</time></trkpt>
<trkpt lat="50.054540" lon="4.512598"><time>2026-05-06T22:34:49Z</time></trkpt>
<trkpt lat="50.054141" lon="4.508296"><time>2026-05-06T22:44:49Z</time></trkpt>
</trkseg>
</trk>
<trk>
<name>ncvpt10bis</name>
<cmt>v</cmt>
<desc>Petigny Chemin n°10bis </desc>
<link href="https://chemins.be/petigny/chemin/10bis"/><trkseg>
<trkpt lat="50.037814" lon="4.528601"><time>2026-05-06T21:24:49Z</time></trkpt>
<trkpt lat="50.038093" lon="4.528658"><time>2026-05-06T21:34:49Z</time></trkpt>
</trkseg>
</trk>
<trk>
<name>ncvpt11</name>
<cmt>v</cmt>
<desc>Petigny Chemin n°11 </desc>
<link href="https://chemins.be/petigny/chemin/11"/><trkseg>
<trkpt lat="50.045134" lon="4.534056"><time>2026-05-06T21:24:49Z</time></trkpt>
<trkpt lat="50.044395" lon="4.535255"><time>2026-05-06T21:34:49Z</time></trkpt>
</trkseg></trk>
<trk>
<name>ncvpt11</name>
<cmt>d</cmt>
<desc>Petigny Chemin n°11 </desc>
<link href="https://chemins.be/petigny/chemin/11"/><trkseg>
<trkpt lat="50.044395" lon="4.535255"><time>2026-05-06T21:34:49Z</time></trkpt>
<trkpt lat="50.043783" lon="4.535769"><time>2026-05-06T21:44:49Z</time></trkpt>
<trkpt lat="50.042927" lon="4.537008"><time>2026-05-06T21:54:49Z</time></trkpt>
<trkpt lat="50.042457" lon="4.538570"><time>2026-05-06T22:04:49Z</time></trkpt>
</trkseg>
</trk>
<trk>
<name>ncvpt11bis</name>
<cmt>r</cmt>
<desc>Petigny Chemin n°11bis Le Moulin des Bois / Le Barrage de Ri de Rome</desc>
<link href="https://chemins.be/petigny/chemin/11bis"/><trkseg>
<trkpt lat="50.037313" lon="4.527189"><time>2026-05-06T21:24:49Z</time></trkpt>
<trkpt lat="50.035630" lon="4.528245"><time>2026-05-06T21:34:49Z</time></trkpt>
<trkpt lat="50.033819" lon="4.530625"><time>2026-05-06T21:44:49Z</time></trkpt>
<trkpt lat="50.031820" lon="4.532949"><time>2026-05-06T21:54:49Z</time></trkpt>
<trkpt lat="50.029877" lon="4.533948"><time>2026-05-06T22:04:49Z</time></trkpt>
<trkpt lat="50.026416" lon="4.533503"><time>2026-05-06T22:14:49Z</time></trkpt>
</trkseg></trk>
<trk>
<name>ncvpt11bis</name>
<cmt>s</cmt>
<desc>Petigny Chemin n°11bis Le Moulin des Bois / Le Barrage de Ri de Rome</desc>
<link href="https://chemins.be/petigny/chemin/11bis"/><trkseg>
<trkpt lat="50.026416" lon="4.533503"><time>2026-05-06T22:14:49Z</time></trkpt>
<trkpt lat="50.024671" lon="4.533930"><time>2026-05-06T22:24:49Z</time></trkpt>
<trkpt lat="50.023447" lon="4.535167"><time>2026-05-06T22:34:49Z</time></trkpt>
<trkpt lat="50.020516" lon="4.540948"><time>2026-05-06T22:44:49Z</time></trkpt>
<trkpt lat="50.021748" lon="4.546660"><time>2026-05-06T22:54:49Z</time></trkpt>
</trkseg></trk>
<trk>
<name>ncvpt11bis</name>
<cmt>v</cmt>
<desc>Petigny Chemin n°11bis Le Moulin des Bois / Le Barrage de Ri de Rome</desc>
<link href="https://chemins.be/petigny/chemin/11bis"/><trkseg>
<trkpt lat="50.021748" lon="4.546660"><time>2026-05-06T22:54:49Z</time></trkpt>
<trkpt lat="50.021410" lon="4.550482"><time>2026-05-06T23:04:49Z</time></trkpt>
<trkpt lat="50.021631" lon="4.552520"><time>2026-05-06T23:14:49Z</time></trkpt>
<trkpt lat="50.022312" lon="4.554170"><time>2026-05-06T23:24:49Z</time></trkpt>
<trkpt lat="50.021492" lon="4.555032"><time>2026-05-06T23:34:49Z</time></trkpt>
<trkpt lat="50.021363" lon="4.556957"><time>2026-05-06T23:44:49Z</time></trkpt>
<trkpt lat="50.020529" lon="4.558666"><time>2026-05-06T23:54:49Z</time></trkpt>
<trkpt lat="50.020360" lon="4.559482"><time>2026-05-07T00:04:49Z</time></trkpt>
<trkpt lat="50.020330" lon="4.560184"><time>2026-05-07T00:14:49Z</time></trkpt>
<trkpt lat="50.020540" lon="4.562142"><time>2026-05-07T00:24:49Z</time></trkpt>
<trkpt lat="50.020730" lon="4.563124"><time>2026-05-07T00:34:49Z</time></trkpt>
<trkpt lat="50.020719" lon="4.564455"><time>2026-05-07T00:44:49Z</time></trkpt>
<trkpt lat="50.020302" lon="4.566005"><time>2026-05-07T00:54:49Z</time></trkpt>
</trkseg>
</trk>
<trk>
<name>ncvpt12</name>
<cmt>v</cmt>
<desc>Petigny Chemin n°12 </desc>
<link href="https://chemins.be/petigny/chemin/12"/><trkseg>
<trkpt lat="50.030795" lon="4.556687"><time>2026-05-06T21:24:49Z</time></trkpt>
<trkpt lat="50.030444" lon="4.556462"><time>2026-05-06T21:34:49Z</time></trkpt>
<trkpt lat="50.029447" lon="4.556375"><time>2026-05-06T21:44:49Z</time></trkpt>
</trkseg>
</trk>
<trk>
<name>ncvpt14</name>
<cmt>r</cmt>
<desc>Petigny Chemin n°14 Rue Paquet</desc>
<link href="https://chemins.be/petigny/chemin/14"/><trkseg>
<trkpt lat="50.058713" lon="4.531743"><time>2026-05-06T21:24:49Z</time></trkpt>
<trkpt lat="50.059505" lon="4.531397"><time>2026-05-06T21:34:49Z</time></trkpt>
<trkpt lat="50.059398" lon="4.530684"><time>2026-05-06T21:44:49Z</time></trkpt>
</trkseg>
</trk>
<trk>
<name>ncvpt17</name>
<cmt>v</cmt>
<desc>Petigny Chemin n°17 </desc>
<link href="https://chemins.be/petigny/chemin/17"/><trkseg>
<trkpt lat="50.058720" lon="4.532791"><time>2026-05-06T21:24:49Z</time></trkpt>
<trkpt lat="50.058909" lon="4.532931"><time>2026-05-06T21:34:49Z</time></trkpt>
<trkpt lat="50.059035" lon="4.532960"><time>2026-05-06T21:44:49Z</time></trkpt>
<trkpt lat="50.059206" lon="4.532709"><time>2026-05-06T21:54:49Z</time></trkpt>
</trkseg>
</trk>
<trk>
<name>ncvpt18</name>
<cmt>v</cmt>
<desc>Petigny Chemin n°18 </desc>
<link href="https://chemins.be/petigny/chemin/18"/><trkseg>
<trkpt lat="50.055241" lon="4.532877"><time>2026-05-06T21:24:49Z</time></trkpt>
<trkpt lat="50.054307" lon="4.532231"><time>2026-05-06T21:34:49Z</time></trkpt>
<trkpt lat="50.052051" lon="4.531441"><time>2026-05-06T21:44:49Z</time></trkpt>
</trkseg>
</trk>
<trk>
<name>ncvpt2</name>
<cmt>r</cmt>
<desc>Petigny Chemin n°2 Rue des Monts</desc>
<link href="https://chemins.be/petigny/chemin/2"/><trkseg>
<trkpt lat="50.060369" lon="4.530325"><time>2026-05-06T21:24:49Z</time></trkpt>
<trkpt lat="50.060361" lon="4.529836"><time>2026-05-06T21:34:49Z</time></trkpt>
<trkpt lat="50.060048" lon="4.528592"><time>2026-05-06T21:44:49Z</time></trkpt>
<trkpt lat="50.060320" lon="4.527001"><time>2026-05-06T21:54:49Z</time></trkpt>
<trkpt lat="50.061347" lon="4.525691"><time>2026-05-06T22:04:49Z</time></trkpt>
<trkpt lat="50.061708" lon="4.524463"><time>2026-05-06T22:14:49Z</time></trkpt>
<trkpt lat="50.062194" lon="4.524381"><time>2026-05-06T22:24:49Z</time></trkpt>
<trkpt lat="50.062920" lon="4.525347"><time>2026-05-06T22:34:49Z</time></trkpt>
<trkpt lat="50.063299" lon="4.524622"><time>2026-05-06T22:44:49Z</time></trkpt>
<trkpt lat="50.064541" lon="4.523355"><time>2026-05-06T22:54:49Z</time></trkpt>
</trkseg>
</trk>
<trk>
<name>ncvpt20</name>
<cmt>s</cmt>
<desc>Petigny Chemin n°20 Rue des Girondelles</desc>
<link href="https://chemins.be/petigny/chemin/20"/><trkseg>
<trkpt lat="50.054140" lon="4.509064"><time>2026-05-06T21:24:49Z</time></trkpt>
<trkpt lat="50.054014" lon="4.508868"><time>2026-05-06T21:34:49Z</time></trkpt>
<trkpt lat="50.053942" lon="4.508617"><time>2026-05-06T21:44:49Z</time></trkpt>
</trkseg>
</trk>
<trk>
<name>ncvpt21</name>
<cmt>s</cmt>
<desc>Petigny Chemin n°21 </desc>
<link href="https://chemins.be/petigny/chemin/21"/><trkseg>
<trkpt lat="50.007638" lon="4.549049"><time>2026-05-06T21:24:49Z</time></trkpt>
<trkpt lat="50.008215" lon="4.548060"><time>2026-05-06T21:34:49Z</time></trkpt>
<trkpt lat="50.008335" lon="4.545871"><time>2026-05-06T21:44:49Z</time></trkpt>
<trkpt lat="50.007311" lon="4.545378"><time>2026-05-06T21:54:49Z</time></trkpt>
</trkseg>
</trk>
<trk>
<name>ncvpt22</name>
<cmt>v</cmt>
<desc>Petigny Sentier n°22 </desc>
<link href="https://chemins.be/petigny/sentier/22"/><trkseg>
<trkpt lat="50.060405" lon="4.530227"><time>2026-05-06T21:24:49Z</time></trkpt>
<trkpt lat="50.060917" lon="4.530815"><time>2026-05-06T21:34:49Z</time></trkpt>
<trkpt lat="50.061482" lon="4.531585"><time>2026-05-06T21:44:49Z</time></trkpt>
<trkpt lat="50.062244" lon="4.532999"><time>2026-05-06T21:54:49Z</time></trkpt>
<trkpt lat="50.063376" lon="4.534148"><time>2026-05-06T22:04:49Z</time></trkpt>
<trkpt lat="50.063911" lon="4.536622"><time>2026-05-06T22:14:49Z</time></trkpt>
<trkpt lat="50.064358" lon="4.538928"><time>2026-05-06T22:24:49Z</time></trkpt>
</trkseg>
</trk>
<trk>
<name>ncvpt23</name>
<cmt>v</cmt>
<desc>Petigny Sentier n°23 Chemin de Service / Les Chenaux</desc>
<link href="https://chemins.be/petigny/sentier/23"/><trkseg>
<trkpt lat="50.061050" lon="4.525900"><time>2026-05-06T21:24:49Z</time></trkpt>
<trkpt lat="50.060817" lon="4.525312"><time>2026-05-06T21:34:49Z</time></trkpt>
<trkpt lat="50.061123" lon="4.524629"><time>2026-05-06T21:44:49Z</time></trkpt>
<trkpt lat="50.061520" lon="4.523443"><time>2026-05-06T21:54:49Z</time></trkpt>
</trkseg></trk>
<trk>
<name>ncvpt23</name>
<cmt>d</cmt>
<desc>Petigny Sentier n°23 Chemin de Service / Les Chenaux</desc>
<link href="https://chemins.be/petigny/sentier/23"/><trkseg>
<trkpt lat="50.061520" lon="4.523443"><time>2026-05-06T21:54:49Z</time></trkpt>
<trkpt lat="50.061728" lon="4.523123"><time>2026-05-06T22:04:49Z</time></trkpt>
<trkpt lat="50.062395" lon="4.521826"><time>2026-05-06T22:14:49Z</time></trkpt>
<trkpt lat="50.062388" lon="4.520234"><time>2026-05-06T22:24:49Z</time></trkpt>
</trkseg></trk>
<trk>
<name>ncvpt23</name>
<cmt>r</cmt>
<desc>Petigny Sentier n°23 Chemin de Service / Les Chenaux</desc>
<link href="https://chemins.be/petigny/sentier/23"/><trkseg>
<trkpt lat="50.062388" lon="4.520234"><time>2026-05-06T22:24:49Z</time></trkpt>
<trkpt lat="50.062929" lon="4.519090"><time>2026-05-06T22:34:49Z</time></trkpt>
<trkpt lat="50.063273" lon="4.517499"><time>2026-05-06T22:44:49Z</time></trkpt>
<trkpt lat="50.063949" lon="4.515811"><time>2026-05-06T22:54:49Z</time></trkpt>
</trkseg></trk>
<trk>
<name>ncvpt23</name>
<cmt>d</cmt>
<desc>Petigny Sentier n°23 Chemin de Service / Les Chenaux</desc>
<link href="https://chemins.be/petigny/sentier/23"/><trkseg>
<trkpt lat="50.063949" lon="4.515811"><time>2026-05-06T22:54:49Z</time></trkpt>
<trkpt lat="50.065138" lon="4.513860"><time>2026-05-06T23:04:49Z</time></trkpt>
</trkseg></trk>
<trk>
<name>ncvpt23</name>
<cmt>v</cmt>
<desc>Petigny Sentier n°23 Chemin de Service / Les Chenaux</desc>
<link href="https://chemins.be/petigny/sentier/23"/><trkseg>
<trkpt lat="50.065138" lon="4.513860"><time>2026-05-06T23:04:49Z</time></trkpt>
<trkpt lat="50.065372" lon="4.513846"><time>2026-05-06T23:14:49Z</time></trkpt>
<trkpt lat="50.065750" lon="4.513331"><time>2026-05-06T23:24:49Z</time></trkpt>
<trkpt lat="50.066101" lon="4.512941"><time>2026-05-06T23:34:49Z</time></trkpt>
<trkpt lat="50.066723" lon="4.512160"><time>2026-05-06T23:44:49Z</time></trkpt>
<trkpt lat="50.066948" lon="4.511742"><time>2026-05-06T23:54:49Z</time></trkpt>
<trkpt lat="50.067362" lon="4.511604"><time>2026-05-07T00:04:49Z</time></trkpt>
<trkpt lat="50.067830" lon="4.511116"><time>2026-05-07T00:14:49Z</time></trkpt>
</trkseg></trk>
<trk>
<name>ncvpt23</name>
<cmt>b</cmt>
<desc>Petigny Sentier n°23 Chemin de Service / Les Chenaux</desc>
<link href="https://chemins.be/petigny/sentier/23"/><trkseg>
<trkpt lat="50.067830" lon="4.511116"><time>2026-05-07T00:14:49Z</time></trkpt>
<trkpt lat="50.069125" lon="4.510715"><time>2026-05-07T00:24:49Z</time></trkpt>
</trkseg>
</trk>
<trk>
<name>ncvpt24</name>
<cmt>d</cmt>
<desc>Petigny Sentier n°24 </desc>
<link href="https://chemins.be/petigny/sentier/24"/><trkseg>
<trkpt lat="50.063412" lon="4.534190"><time>2026-05-06T21:24:49Z</time></trkpt>
<trkpt lat="50.064246" lon="4.535422"><time>2026-05-06T21:34:49Z</time></trkpt>
<trkpt lat="50.064595" lon="4.536303"><time>2026-05-06T21:44:49Z</time></trkpt>
<trkpt lat="50.065044" lon="4.537045"><time>2026-05-06T21:54:49Z</time></trkpt>
</trkseg>
</trk>
<trk>
<name>ncvpt25</name>
<cmt>v</cmt>
<desc>Petigny Sentier n°25 </desc>
<link href="https://chemins.be/petigny/sentier/25"/><trkseg>
<trkpt lat="50.059881" lon="4.538633"><time>2026-05-06T21:24:49Z</time></trkpt>
<trkpt lat="50.060553" lon="4.540143"><time>2026-05-06T21:34:49Z</time></trkpt>
<trkpt lat="50.061143" lon="4.542464"><time>2026-05-06T21:44:49Z</time></trkpt>
<trkpt lat="50.062248" lon="4.543040"><time>2026-05-06T21:54:49Z</time></trkpt>
<trkpt lat="50.062409" lon="4.543306"><time>2026-05-06T22:04:49Z</time></trkpt>
</trkseg>
</trk>
<trk>
<name>ncvpt26</name>
<cmt>r</cmt>
<desc>Petigny Sentier n°26 Revers des Roches / Rue Revers-des-Roches</desc>
<link href="https://chemins.be/petigny/sentier/26"/><trkseg>
<trkpt lat="50.057704" lon="4.533137"><time>2026-05-06T21:24:49Z</time></trkpt>
<trkpt lat="50.057344" lon="4.533415"><time>2026-05-06T21:34:49Z</time></trkpt>
</trkseg></trk>
<trk>
<name>ncvpt26</name>
<cmt>v</cmt>
<desc>Petigny Sentier n°26 Revers des Roches / Rue Revers-des-Roches</desc>
<link href="https://chemins.be/petigny/sentier/26"/><trkseg>
<trkpt lat="50.057344" lon="4.533415"><time>2026-05-06T21:34:49Z</time></trkpt>
<trkpt lat="50.057308" lon="4.533638"><time>2026-05-06T21:44:49Z</time></trkpt>
<trkpt lat="50.056606" lon="4.534166"><time>2026-05-06T21:54:49Z</time></trkpt>
<trkpt lat="50.056173" lon="4.535072"><time>2026-05-06T22:04:49Z</time></trkpt>
</trkseg></trk>
<trk>
<name>ncvpt26</name>
<cmt>r</cmt>
<desc>Petigny Sentier n°26 Revers des Roches / Rue Revers-des-Roches</desc>
<link href="https://chemins.be/petigny/sentier/26"/><trkseg>
<trkpt lat="50.056173" lon="4.535072"><time>2026-05-06T22:04:49Z</time></trkpt>
<trkpt lat="50.055901" lon="4.536356"><time>2026-05-06T22:14:49Z</time></trkpt>
<trkpt lat="50.055684" lon="4.537249"><time>2026-05-06T22:24:49Z</time></trkpt>
<trkpt lat="50.055477" lon="4.537695"><time>2026-05-06T22:34:49Z</time></trkpt>
</trkseg></trk>
<trk>
<name>ncvpt26</name>
<cmt>v</cmt>
<desc>Petigny Sentier n°26 Revers des Roches / Rue Revers-des-Roches</desc>
<link href="https://chemins.be/petigny/sentier/26"/><trkseg>
<trkpt lat="50.055477" lon="4.537695"><time>2026-05-06T22:34:49Z</time></trkpt>
<trkpt lat="50.055269" lon="4.538127"><time>2026-05-06T22:44:49Z</time></trkpt>
<trkpt lat="50.054791" lon="4.539145"><time>2026-05-06T22:54:49Z</time></trkpt>
</trkseg></trk>
<trk>
<name>ncvpt26</name>
<cmt>d</cmt>
<desc>Petigny Sentier n°26 Revers des Roches / Rue Revers-des-Roches</desc>
<link href="https://chemins.be/petigny/sentier/26"/><trkseg>
<trkpt lat="50.054791" lon="4.539145"><time>2026-05-06T22:54:49Z</time></trkpt>
<trkpt lat="50.054665" lon="4.539647"><time>2026-05-06T23:04:49Z</time></trkpt>
<trkpt lat="50.054421" lon="4.540568"><time>2026-05-06T23:14:49Z</time></trkpt>
<trkpt lat="50.054382" lon="4.542495"><time>2026-05-06T23:24:49Z</time></trkpt>
<trkpt lat="50.054426" lon="4.543151"><time>2026-05-06T23:34:49Z</time></trkpt>
<trkpt lat="50.054326" lon="4.543933"><time>2026-05-06T23:44:49Z</time></trkpt>
<trkpt lat="50.054082" lon="4.544644"><time>2026-05-06T23:54:49Z</time></trkpt>
<trkpt lat="50.054081" lon="4.545035"><time>2026-05-07T00:04:49Z</time></trkpt>
</trkseg>
</trk>
<trk>
<name>ncvpt27</name>
<cmt>v</cmt>
<desc>Petigny Sentier n°27 Rue Plouy</desc>
<link href="https://chemins.be/petigny/sentier/27"/><trkseg>
<trkpt lat="50.057408" lon="4.532493"><time>2026-05-06T21:24:49Z</time></trkpt>
<trkpt lat="50.057292" lon="4.532158"><time>2026-05-06T21:34:49Z</time></trkpt>
<trkpt lat="50.057230" lon="4.531669"><time>2026-05-06T21:44:49Z</time></trkpt>
<trkpt lat="50.056844" lon="4.530606"><time>2026-05-06T21:54:49Z</time></trkpt>
<trkpt lat="50.056620" lon="4.530591"><time>2026-05-06T22:04:49Z</time></trkpt>
<trkpt lat="50.056342" lon="4.529920"><time>2026-05-06T22:14:49Z</time></trkpt>
<trkpt lat="50.056298" lon="4.529459"><time>2026-05-06T22:24:49Z</time></trkpt>
<trkpt lat="50.056092" lon="4.528830"><time>2026-05-06T22:34:49Z</time></trkpt>
<trkpt lat="50.054980" lon="4.526354"><time>2026-05-06T22:44:49Z</time></trkpt>
<trkpt lat="50.054664" lon="4.524735"><time>2026-05-06T22:54:49Z</time></trkpt>
</trkseg></trk>
<trk>
<name>ncvpt27</name>
<cmt>d</cmt>
<desc>Petigny Sentier n°27 Rue Plouy</desc>
<link href="https://chemins.be/petigny/sentier/27"/><trkseg>
<trkpt lat="50.054664" lon="4.524735"><time>2026-05-06T22:54:49Z</time></trkpt>
<trkpt lat="50.054372" lon="4.523839"><time>2026-05-06T23:04:49Z</time></trkpt>
<trkpt lat="50.054131" lon="4.522595"><time>2026-05-06T23:14:49Z</time></trkpt>
<trkpt lat="50.054239" lon="4.522414"><time>2026-05-06T23:24:49Z</time></trkpt>
</trkseg>
</trk>
<trk>
<name>ncvpt28</name>
<cmt>v</cmt>
<desc>Petigny Sentier n°28 </desc>
<link href="https://chemins.be/petigny/sentier/28"/><trkseg>
<trkpt lat="50.057301" lon="4.532102"><time>2026-05-06T21:24:49Z</time></trkpt>
<trkpt lat="50.057067" lon="4.532296"><time>2026-05-06T21:34:49Z</time></trkpt>
<trkpt lat="50.056977" lon="4.531933"><time>2026-05-06T21:44:49Z</time></trkpt>
<trkpt lat="50.056825" lon="4.531807"><time>2026-05-06T21:54:49Z</time></trkpt>
<trkpt lat="50.056735" lon="4.531527"><time>2026-05-06T22:04:49Z</time></trkpt>
<trkpt lat="50.056206" lon="4.530911"><time>2026-05-06T22:14:49Z</time></trkpt>
<trkpt lat="50.055999" lon="4.530701"><time>2026-05-06T22:24:49Z</time></trkpt>
<trkpt lat="50.055658" lon="4.530364"><time>2026-05-06T22:34:49Z</time></trkpt>
</trkseg></trk>
<trk>
<name>ncvpt28</name>
<cmt>d</cmt>
<desc>Petigny Sentier n°28 </desc>
<link href="https://chemins.be/petigny/sentier/28"/><trkseg>
<trkpt lat="50.055658" lon="4.530364"><time>2026-05-06T22:34:49Z</time></trkpt>
<trkpt lat="50.055227" lon="4.530195"><time>2026-05-06T22:44:49Z</time></trkpt>
<trkpt lat="50.054455" lon="4.528992"><time>2026-05-06T22:54:49Z</time></trkpt>
<trkpt lat="50.054285" lon="4.528558"><time>2026-05-06T23:04:49Z</time></trkpt>
<trkpt lat="50.053469" lon="4.526657"><time>2026-05-06T23:14:49Z</time></trkpt>
<trkpt lat="50.053363" lon="4.525539"><time>2026-05-06T23:24:49Z</time></trkpt>
<trkpt lat="50.053392" lon="4.524450"><time>2026-05-06T23:34:49Z</time></trkpt>
<trkpt lat="50.053681" lon="4.523334"><time>2026-05-06T23:44:49Z</time></trkpt>
</trkseg></trk>
<trk>
<name>ncvpt28</name>
<cmt>v</cmt>
<desc>Petigny Sentier n°28 </desc>
<link href="https://chemins.be/petigny/sentier/28"/><trkseg>
<trkpt lat="50.053681" lon="4.523334"><time>2026-05-06T23:44:49Z</time></trkpt>
<trkpt lat="50.053997" lon="4.522092"><time>2026-05-06T23:54:49Z</time></trkpt>
</trkseg>
</trk>
<trk>
<name>ncvpt29</name>
<cmt>v</cmt>
<desc>Petigny Sentier n°29 </desc>
<link href="https://chemins.be/petigny/sentier/29"/><trkseg>
<trkpt lat="50.055708" lon="4.520352"><time>2026-05-06T21:24:49Z</time></trkpt>
<trkpt lat="50.055555" lon="4.520226"><time>2026-05-06T21:34:49Z</time></trkpt>
<trkpt lat="50.054810" lon="4.519023"><time>2026-05-06T21:44:49Z</time></trkpt>
<trkpt lat="50.053665" lon="4.515095"><time>2026-05-06T21:54:49Z</time></trkpt>
<trkpt lat="50.052690" lon="4.510615"><time>2026-05-06T22:04:49Z</time></trkpt>
</trkseg></trk>
<trk>
<name>ncvpt29</name>
<cmt>s</cmt>
<desc>Petigny Sentier n°29 </desc>
<link href="https://chemins.be/petigny/sentier/29"/><trkseg>
<trkpt lat="50.052690" lon="4.510615"><time>2026-05-06T22:04:49Z</time></trkpt>
<trkpt lat="50.052413" lon="4.509674"><time>2026-05-06T22:14:49Z</time></trkpt>
</trkseg>
</trk>
<trk>
<name>ncvpt3</name>
<cmt>r</cmt>
<desc>Petigny Chemin n°3 Rue Culot Haut / Rue Culot-Haut</desc>
<link href="https://chemins.be/petigny/chemin/3"/><trkseg>
<trkpt lat="50.051925" lon="4.531539"><time>2026-05-06T21:24:49Z</time></trkpt>
<trkpt lat="50.049858" lon="4.531462"><time>2026-05-06T21:34:49Z</time></trkpt>
<trkpt lat="50.048248" lon="4.531763"><time>2026-05-06T21:44:49Z</time></trkpt>
<trkpt lat="50.045242" lon="4.533889"><time>2026-05-06T21:54:49Z</time></trkpt>
<trkpt lat="50.043955" lon="4.534750"><time>2026-05-06T22:04:49Z</time></trkpt>
<trkpt lat="50.043263" lon="4.534818"><time>2026-05-06T22:14:49Z</time></trkpt>
<trkpt lat="50.041778" lon="4.535259"><time>2026-05-06T22:24:49Z</time></trkpt>
<trkpt lat="50.040643" lon="4.536735"><time>2026-05-06T22:34:49Z</time></trkpt>
<trkpt lat="50.037777" lon="4.535343"><time>2026-05-06T22:44:49Z</time></trkpt>
<trkpt lat="50.032815" lon="4.538137"><time>2026-05-06T22:54:49Z</time></trkpt>
</trkseg></trk>
<trk>
<name>ncvpt3</name>
<cmt>v</cmt>
<desc>Petigny Chemin n°3 Rue Culot Haut / Rue Culot-Haut</desc>
<link href="https://chemins.be/petigny/chemin/3"/><trkseg>
<trkpt lat="50.032815" lon="4.538137"><time>2026-05-06T22:54:49Z</time></trkpt>
<trkpt lat="50.031593" lon="4.539424"><time>2026-05-06T23:04:49Z</time></trkpt>
<trkpt lat="50.028877" lon="4.541202"><time>2026-05-06T23:14:49Z</time></trkpt>
<trkpt lat="50.026673" lon="4.541850"><time>2026-05-06T23:24:49Z</time></trkpt>
<trkpt lat="50.025235" lon="4.541579"><time>2026-05-06T23:34:49Z</time></trkpt>
<trkpt lat="50.024183" lon="4.542106"><time>2026-05-06T23:44:49Z</time></trkpt>
<trkpt lat="50.022186" lon="4.542754"><time>2026-05-06T23:54:49Z</time></trkpt>
<trkpt lat="50.021279" lon="4.541942"><time>2026-05-07T00:04:49Z</time></trkpt>
</trkseg></trk>
<trk>
<name>ncvpt3</name>
<cmt>s</cmt>
<desc>Petigny Chemin n°3 Rue Culot Haut / Rue Culot-Haut</desc>
<link href="https://chemins.be/petigny/chemin/3"/><trkseg>
<trkpt lat="50.021279" lon="4.541942"><time>2026-05-07T00:04:49Z</time></trkpt>
<trkpt lat="50.020165" lon="4.541100"><time>2026-05-07T00:14:49Z</time></trkpt>
<trkpt lat="50.018305" lon="4.540522"><time>2026-05-07T00:24:49Z</time></trkpt>
<trkpt lat="50.017046" lon="4.540782"><time>2026-05-07T00:34:49Z</time></trkpt>
</trkseg></trk>
<trk>
<name>ncvpt3</name>
<cmt>v</cmt>
<desc>Petigny Chemin n°3 Rue Culot Haut / Rue Culot-Haut</desc>
<link href="https://chemins.be/petigny/chemin/3"/><trkseg>
<trkpt lat="50.017046" lon="4.540782"><time>2026-05-07T00:34:49Z</time></trkpt>
<trkpt lat="50.015814" lon="4.541099"><time>2026-05-07T00:44:49Z</time></trkpt>
<trkpt lat="50.011656" lon="4.537986"><time>2026-05-07T00:54:49Z</time></trkpt>
</trkseg>
</trk>
<trk>
<name>ncvpt30</name>
<cmt>r</cmt>
<desc>Petigny Sentier n°30 Les Chenaux / Le-Caillou-d'Eau</desc>
<link href="https://chemins.be/petigny/sentier/30"/><trkseg>
<trkpt lat="50.057610" lon="4.529505"><time>2026-05-06T21:24:49Z</time></trkpt>
<trkpt lat="50.058161" lon="4.527650"><time>2026-05-06T21:34:49Z</time></trkpt>
</trkseg></trk>
<trk>
<name>ncvpt30</name>
<cmt>d</cmt>
<desc>Petigny Sentier n°30 Les Chenaux / Le-Caillou-d'Eau</desc>
<link href="https://chemins.be/petigny/sentier/30"/><trkseg>
<trkpt lat="50.058161" lon="4.527650"><time>2026-05-06T21:34:49Z</time></trkpt>
<trkpt lat="50.058198" lon="4.527035"><time>2026-05-06T21:44:49Z</time></trkpt>
<trkpt lat="50.058704" lon="4.525487"><time>2026-05-06T21:54:49Z</time></trkpt>
<trkpt lat="50.058903" lon="4.524315"><time>2026-05-06T22:04:49Z</time></trkpt>
<trkpt lat="50.059013" lon="4.522751"><time>2026-05-06T22:14:49Z</time></trkpt>
<trkpt lat="50.059193" lon="4.522570"><time>2026-05-06T22:24:49Z</time></trkpt>
<trkpt lat="50.059508" lon="4.522278"><time>2026-05-06T22:34:49Z</time></trkpt>
</trkseg></trk>
<trk>
<name>ncvpt30</name>
<cmt>r</cmt>
<desc>Petigny Sentier n°30 Les Chenaux / Le-Caillou-d'Eau</desc>
<link href="https://chemins.be/petigny/sentier/30"/><trkseg>
<trkpt lat="50.059508" lon="4.522278"><time>2026-05-06T22:34:49Z</time></trkpt>
<trkpt lat="50.059859" lon="4.521846"><time>2026-05-06T22:44:49Z</time></trkpt>
<trkpt lat="50.060598" lon="4.520563"><time>2026-05-06T22:54:49Z</time></trkpt>
<trkpt lat="50.060949" lon="4.520215"><time>2026-05-06T23:04:49Z</time></trkpt>
</trkseg>
</trk>
<trk>
<name>ncvpt31</name>
<cmt>v</cmt>
<desc>Petigny Sentier n°31 </desc>
<link href="https://chemins.be/petigny/sentier/31"/><trkseg>
<trkpt lat="50.060073" lon="4.530212"><time>2026-05-06T21:24:49Z</time></trkpt>
<trkpt lat="50.059417" lon="4.530070"><time>2026-05-06T21:34:49Z</time></trkpt>
<trkpt lat="50.059129" lon="4.530223"><time>2026-05-06T21:44:49Z</time></trkpt>
</trkseg>
</trk>
<trk>
<name>ncvpt32</name>
<cmt>d</cmt>
<desc>Petigny Sentier n°32 </desc>
<link href="https://chemins.be/petigny/sentier/32"/><trkseg>
<trkpt lat="50.060316" lon="4.529892"><time>2026-05-06T21:24:49Z</time></trkpt>
<trkpt lat="50.060127" lon="4.530170"><time>2026-05-06T21:34:49Z</time></trkpt>
<trkpt lat="50.060063" lon="4.530407"><time>2026-05-06T21:44:49Z</time></trkpt>
<trkpt lat="50.060009" lon="4.530659"><time>2026-05-06T21:54:49Z</time></trkpt>
</trkseg>
</trk>
<trk>
<name>ncvpt33</name>
<cmt>v</cmt>
<desc>Petigny Sentier n°33 </desc>
<link href="https://chemins.be/petigny/sentier/33"/><trkseg>
<trkpt lat="50.056517" lon="4.533551"><time>2026-05-06T21:24:49Z</time></trkpt>
<trkpt lat="50.056570" lon="4.533775"><time>2026-05-06T21:34:49Z</time></trkpt>
<trkpt lat="50.056516" lon="4.533900"><time>2026-05-06T21:44:49Z</time></trkpt>
<trkpt lat="50.056597" lon="4.534054"><time>2026-05-06T21:54:49Z</time></trkpt>
<trkpt lat="50.056651" lon="4.534082"><time>2026-05-06T22:04:49Z</time></trkpt>
</trkseg>
</trk>
<trk>
<name>ncvpt34</name>
<cmt>r</cmt>
<desc>Petigny Sentier n°34 Rue Revers-des-Roches</desc>
<link href="https://chemins.be/petigny/sentier/34"/><trkseg>
<trkpt lat="50.055001" lon="4.537093"><time>2026-05-06T21:24:49Z</time></trkpt>
<trkpt lat="50.055225" lon="4.537708"><time>2026-05-06T21:34:49Z</time></trkpt>
<trkpt lat="50.055387" lon="4.537709"><time>2026-05-06T21:44:49Z</time></trkpt>
</trkseg>
</trk>
<trk>
<name>ncvpt35</name>
<cmt>v</cmt>
<desc>Petigny Chemin n°35 </desc>
<link href="https://chemins.be/petigny/chemin/35"/><trkseg>
<trkpt lat="50.026994" lon="4.555276"><time>2026-05-06T21:24:49Z</time></trkpt>
<trkpt lat="50.023660" lon="4.554189"><time>2026-05-06T21:34:49Z</time></trkpt>
<trkpt lat="50.022330" lon="4.554142"><time>2026-05-06T21:44:49Z</time></trkpt>
<trkpt lat="50.018580" lon="4.554671"><time>2026-05-06T21:54:49Z</time></trkpt>
<trkpt lat="50.014267" lon="4.552729"><time>2026-05-06T22:04:49Z</time></trkpt>
<trkpt lat="50.012739" lon="4.552695"><time>2026-05-06T22:14:49Z</time></trkpt>
</trkseg></trk>
<trk>
<name>ncvpt35</name>
<cmt>s</cmt>
<desc>Petigny Chemin n°35 </desc>
<link href="https://chemins.be/petigny/chemin/35"/><trkseg>
<trkpt lat="50.012739" lon="4.552695"><time>2026-05-06T22:14:49Z</time></trkpt>
<trkpt lat="50.011053" lon="4.549857"><time>2026-05-06T22:24:49Z</time></trkpt>
<trkpt lat="50.008849" lon="4.550783"><time>2026-05-06T22:34:49Z</time></trkpt>
<trkpt lat="50.007369" lon="4.548643"><time>2026-05-06T22:44:49Z</time></trkpt>
<trkpt lat="50.004638" lon="4.547154"><time>2026-05-06T22:54:49Z</time></trkpt>
</trkseg>
</trk>
<trk>
<name>ncvpt4</name>
<cmt>r</cmt>
<desc>Petigny Chemin n°4 Rue du Hestreux / Rue Culot-Haut / Unnamed Road</desc>
<link href="https://chemins.be/petigny/chemin/4"/><trkseg>
<trkpt lat="50.044707" lon="4.517315"><time>2026-05-06T21:24:49Z</time></trkpt>
<trkpt lat="50.044206" lon="4.522368"><time>2026-05-06T21:34:49Z</time></trkpt>
<trkpt lat="50.043611" lon="4.523315"><time>2026-05-06T21:44:49Z</time></trkpt>
<trkpt lat="50.043380" lon="4.528103"><time>2026-05-06T21:54:49Z</time></trkpt>
<trkpt lat="50.043651" lon="4.533423"><time>2026-05-06T22:04:49Z</time></trkpt>
<trkpt lat="50.043281" lon="4.534734"><time>2026-05-06T22:14:49Z</time></trkpt>
<trkpt lat="50.042504" lon="4.537286"><time>2026-05-06T22:24:49Z</time></trkpt>
<trkpt lat="50.042304" lon="4.538919"><time>2026-05-06T22:34:49Z</time></trkpt>
<trkpt lat="50.040764" lon="4.540616"><time>2026-05-06T22:44:49Z</time></trkpt>
<trkpt lat="50.039478" lon="4.540347"><time>2026-05-06T22:54:49Z</time></trkpt>
<trkpt lat="50.036221" lon="4.542038"><time>2026-05-06T23:04:49Z</time></trkpt>
<trkpt lat="50.035034" lon="4.542061"><time>2026-05-06T23:14:49Z</time></trkpt>
<trkpt lat="50.032317" lon="4.543559"><time>2026-05-06T23:24:49Z</time></trkpt>
<trkpt lat="50.031162" lon="4.545983"><time>2026-05-06T23:34:49Z</time></trkpt>
<trkpt lat="50.030846" lon="4.547099"><time>2026-05-06T23:44:49Z</time></trkpt>
<trkpt lat="50.029800" lon="4.549174"><time>2026-05-06T23:54:49Z</time></trkpt>
<trkpt lat="50.028709" lon="4.551180"><time>2026-05-07T00:04:49Z</time></trkpt>
<trkpt lat="50.027156" lon="4.555096"><time>2026-05-07T00:14:49Z</time></trkpt>
<trkpt lat="50.024861" lon="4.562232"><time>2026-05-07T00:24:49Z</time></trkpt>
<trkpt lat="50.023636" lon="4.563525"><time>2026-05-07T00:34:49Z</time></trkpt>
</trkseg>
</trk>
<trk>
<name>ncvpt5</name>
<cmt>v</cmt>
<desc>Petigny Chemin n°5 Rue Reposoir</desc>
<link href="https://chemins.be/petigny/chemin/5"/><trkseg>
<trkpt lat="50.052318" lon="4.539974"><time>2026-05-06T21:24:49Z</time></trkpt>
<trkpt lat="50.051201" lon="4.541296"><time>2026-05-06T21:34:49Z</time></trkpt>
<trkpt lat="50.049762" lon="4.541291"><time>2026-05-06T21:44:49Z</time></trkpt>
<trkpt lat="50.048907" lon="4.541861"><time>2026-05-06T21:54:49Z</time></trkpt>
<trkpt lat="50.048485" lon="4.541929"><time>2026-05-06T22:04:49Z</time></trkpt>
<trkpt lat="50.047889" lon="4.543267"><time>2026-05-06T22:14:49Z</time></trkpt>
<trkpt lat="50.046737" lon="4.544212"><time>2026-05-06T22:24:49Z</time></trkpt>
<trkpt lat="50.044946" lon="4.545295"><time>2026-05-06T22:34:49Z</time></trkpt>
<trkpt lat="50.044242" lon="4.547316"><time>2026-05-06T22:44:49Z</time></trkpt>
<trkpt lat="50.043223" lon="4.549169"><time>2026-05-06T22:54:49Z</time></trkpt>
<trkpt lat="50.042099" lon="4.549416"><time>2026-05-06T23:04:49Z</time></trkpt>
<trkpt lat="50.040058" lon="4.549325"><time>2026-05-06T23:14:49Z</time></trkpt>
<trkpt lat="50.039196" lon="4.549791"><time>2026-05-06T23:24:49Z</time></trkpt>
<trkpt lat="50.036622" lon="4.550443"><time>2026-05-06T23:34:49Z</time></trkpt>
<trkpt lat="50.035973" lon="4.551557"><time>2026-05-06T23:44:49Z</time></trkpt>
<trkpt lat="50.035244" lon="4.551833"><time>2026-05-06T23:54:49Z</time></trkpt>
</trkseg></trk>
<trk>
<name>ncvpt5</name>
<cmt>d</cmt>
<desc>Petigny Chemin n°5 Rue Reposoir</desc>
<link href="https://chemins.be/petigny/chemin/5"/><trkseg>
<trkpt lat="50.035244" lon="4.551833"><time>2026-05-06T23:54:49Z</time></trkpt>
<trkpt lat="50.031959" lon="4.554193"><time>2026-05-07T00:04:49Z</time></trkpt>
<trkpt lat="50.029690" lon="4.555873"><time>2026-05-07T00:14:49Z</time></trkpt>
<trkpt lat="50.029456" lon="4.556082"><time>2026-05-07T00:24:49Z</time></trkpt>
<trkpt lat="50.029096" lon="4.556345"><time>2026-05-07T00:34:49Z</time></trkpt>
<trkpt lat="50.027362" lon="4.555669"><time>2026-05-07T00:44:49Z</time></trkpt>
<trkpt lat="50.027084" lon="4.555514"><time>2026-05-07T00:54:49Z</time></trkpt>
</trkseg>
</trk>
<trk>
<name>ncvpt6</name>
<cmt>r</cmt>
<desc>Petigny Chemin n°6 Savary</desc>
<link href="https://chemins.be/petigny/chemin/6"/><trkseg>
<trkpt lat="50.056521" lon="4.524251"><time>2026-05-06T21:24:49Z</time></trkpt>
<trkpt lat="50.055856" lon="4.523676"><time>2026-05-06T21:34:49Z</time></trkpt>
<trkpt lat="50.054823" lon="4.522891"><time>2026-05-06T21:44:49Z</time></trkpt>
<trkpt lat="50.054222" lon="4.522358"><time>2026-05-06T21:54:49Z</time></trkpt>
<trkpt lat="50.053379" lon="4.520191"><time>2026-05-06T22:04:49Z</time></trkpt>
<trkpt lat="50.052734" lon="4.518863"><time>2026-05-06T22:14:49Z</time></trkpt>
<trkpt lat="50.051791" lon="4.517715"><time>2026-05-06T22:24:49Z</time></trkpt>
<trkpt lat="50.051765" lon="4.516821"><time>2026-05-06T22:34:49Z</time></trkpt>
<trkpt lat="50.050751" lon="4.515338"><time>2026-05-06T22:44:49Z</time></trkpt>
<trkpt lat="50.050106" lon="4.513409"><time>2026-05-06T22:54:49Z</time></trkpt>
<trkpt lat="50.049920" lon="4.512186"><time>2026-05-06T23:04:49Z</time></trkpt>
</trkseg></trk>
<trk>
<name>ncvpt6</name>
<cmt>s</cmt>
<desc>Petigny Chemin n°6 Savary</desc>
<link href="https://chemins.be/petigny/chemin/6"/><trkseg>
<trkpt lat="50.049920" lon="4.512186"><time>2026-05-06T23:04:49Z</time></trkpt>
<trkpt lat="50.049835" lon="4.511868"><time>2026-05-06T23:14:49Z</time></trkpt>
<trkpt lat="50.049596" lon="4.511452"><time>2026-05-06T23:24:49Z</time></trkpt>
</trkseg>
</trk>
<trk>
<name>ncvpt7</name>
<cmt>r</cmt>
<desc>Petigny Chemin n°7 Rue Augile</desc>
<link href="https://chemins.be/petigny/chemin/7"/><trkseg>
<trkpt lat="50.055770" lon="4.533577"><time>2026-05-06T21:24:49Z</time></trkpt>
<trkpt lat="50.055250" lon="4.532863"><time>2026-05-06T21:34:49Z</time></trkpt>
<trkpt lat="50.055068" lon="4.532389"><time>2026-05-06T21:44:49Z</time></trkpt>
<trkpt lat="50.053823" lon="4.531070"><time>2026-05-06T21:54:49Z</time></trkpt>
<trkpt lat="50.052001" lon="4.528604"><time>2026-05-06T22:04:49Z</time></trkpt>
<trkpt lat="50.051489" lon="4.528214"><time>2026-05-06T22:14:49Z</time></trkpt>
<trkpt lat="50.051248" lon="4.526970"><time>2026-05-06T22:24:49Z</time></trkpt>
<trkpt lat="50.050845" lon="4.525824"><time>2026-05-06T22:34:49Z</time></trkpt>
<trkpt lat="50.050603" lon="4.525418"><time>2026-05-06T22:44:49Z</time></trkpt>
<trkpt lat="50.050271" lon="4.525194"><time>2026-05-06T22:54:49Z</time></trkpt>
<trkpt lat="50.050180" lon="4.525058"><time>2026-05-06T23:04:49Z</time></trkpt>
<trkpt lat="50.049470" lon="4.525440"><time>2026-05-06T23:14:49Z</time></trkpt>
</trkseg>
</trk>
<trk>
<name>ncvpt8</name>
<cmt>r</cmt>
<desc>Petigny Chemin n°8 Rue Chéreule / Les Roches</desc>
<link href="https://chemins.be/petigny/chemin/8"/><trkseg>
<trkpt lat="50.058968" lon="4.535375"><time>2026-05-06T21:24:49Z</time></trkpt>
<trkpt lat="50.059111" lon="4.536465"><time>2026-05-06T21:34:49Z</time></trkpt>
<trkpt lat="50.058894" lon="4.537246"><time>2026-05-06T21:44:49Z</time></trkpt>
<trkpt lat="50.059120" lon="4.538308"><time>2026-05-06T21:54:49Z</time></trkpt>
</trkseg></trk>
<trk>
<name>ncvpt8</name>
<cmt>v</cmt>
<desc>Petigny Chemin n°8 Rue Chéreule / Les Roches</desc>
<link href="https://chemins.be/petigny/chemin/8"/><trkseg>
<trkpt lat="50.059120" lon="4.538308"><time>2026-05-06T21:54:49Z</time></trkpt>
<trkpt lat="50.058374" lon="4.538846"><time>2026-05-06T22:04:49Z</time></trkpt>
</trkseg></trk>
<trk>
<name>ncvpt8</name>
<cmt>r</cmt>
<desc>Petigny Chemin n°8 Rue Chéreule / Les Roches</desc>
<link href="https://chemins.be/petigny/chemin/8"/><trkseg>
<trkpt lat="50.058374" lon="4.538846"><time>2026-05-06T22:04:49Z</time></trkpt>
<trkpt lat="50.057767" lon="4.538988"><time>2026-05-06T22:14:49Z</time></trkpt>
<trkpt lat="50.057209" lon="4.539754"><time>2026-05-06T22:24:49Z</time></trkpt>
<trkpt lat="50.056154" lon="4.541985"><time>2026-05-06T22:34:49Z</time></trkpt>
<trkpt lat="50.055919" lon="4.542528"><time>2026-05-06T22:44:49Z</time></trkpt>
</trkseg></trk>
<trk>
<name>ncvpt8</name>
<cmt>v</cmt>
<desc>Petigny Chemin n°8 Rue Chéreule / Les Roches</desc>
<link href="https://chemins.be/petigny/chemin/8"/><trkseg>
<trkpt lat="50.055919" lon="4.542528"><time>2026-05-06T22:44:49Z</time></trkpt>
<trkpt lat="50.055575" lon="4.543023"><time>2026-05-06T22:54:49Z</time></trkpt>
<trkpt lat="50.055110" lon="4.543667"><time>2026-05-06T23:04:49Z</time></trkpt>
<trkpt lat="50.053865" lon="4.545537"><time>2026-05-06T23:14:49Z</time></trkpt>
</trkseg>
</trk>
<trk>
<name>ncvpt9</name>
<cmt>r</cmt>
<desc>Petigny Chemin n°9 Domaine des Bouvreuils / Rue des Bouvreuils</desc>
<link href="https://chemins.be/petigny/chemin/9"/><trkseg>
<trkpt lat="50.059129" lon="4.536535"><time>2026-05-06T21:24:49Z</time></trkpt>
<trkpt lat="50.059818" lon="4.538535"><time>2026-05-06T21:34:49Z</time></trkpt>
</trkseg></trk>
<trk>
<name>ncvpt9</name>
<cmt>d</cmt>
<desc>Petigny Chemin n°9 Domaine des Bouvreuils / Rue des Bouvreuils</desc>
<link href="https://chemins.be/petigny/chemin/9"/><trkseg>
<trkpt lat="50.059818" lon="4.538535"><time>2026-05-06T21:34:49Z</time></trkpt>
<trkpt lat="50.059790" lon="4.539191"><time>2026-05-06T21:44:49Z</time></trkpt>
<trkpt lat="50.059645" lon="4.539861"><time>2026-05-06T21:54:49Z</time></trkpt>
<trkpt lat="50.059428" lon="4.540740"><time>2026-05-06T22:04:49Z</time></trkpt>
<trkpt lat="50.059159" lon="4.540376"><time>2026-05-06T22:14:49Z</time></trkpt>
</trkseg></trk>
<trk>
<name>ncvpt9</name>
<cmt>r</cmt>
<desc>Petigny Chemin n°9 Domaine des Bouvreuils / Rue des Bouvreuils</desc>
<link href="https://chemins.be/petigny/chemin/9"/><trkseg>
<trkpt lat="50.059159" lon="4.540376"><time>2026-05-06T22:14:49Z</time></trkpt>
<trkpt lat="50.058666" lon="4.539438"><time>2026-05-06T22:24:49Z</time></trkpt>
<trkpt lat="50.058505" lon="4.538893"><time>2026-05-06T22:34:49Z</time></trkpt>
</trkseg>
</trk>
<trk>
<name>ncvpti1</name>
<cmt>v</cmt>
<desc>Petigny Chemin n°i1 Tour du Lac</desc>
<link href="https://chemins.be/petigny/chemin/i1"/><trkseg>
<trkpt lat="50.024037" lon="4.537221"><time>2026-05-06T21:24:49Z</time></trkpt>
<trkpt lat="50.023425" lon="4.537944"><time>2026-05-06T21:34:49Z</time></trkpt>
<trkpt lat="50.023107" lon="4.540218"><time>2026-05-06T21:44:49Z</time></trkpt>
<trkpt lat="50.022674" lon="4.541054"><time>2026-05-06T21:54:49Z</time></trkpt>
<trkpt lat="50.021377" lon="4.542193"><time>2026-05-06T22:04:49Z</time></trkpt>
<trkpt lat="50.021690" lon="4.543841"><time>2026-05-06T22:14:49Z</time></trkpt>
<trkpt lat="50.021929" lon="4.545907"><time>2026-05-06T22:24:49Z</time></trkpt>
<trkpt lat="50.021775" lon="4.546521"><time>2026-05-06T22:34:49Z</time></trkpt>
<trkpt lat="50.021184" lon="4.545081"><time>2026-05-06T22:44:49Z</time></trkpt>
<trkpt lat="50.020503" lon="4.543404"><time>2026-05-06T22:54:49Z</time></trkpt>
<trkpt lat="50.019777" lon="4.542104"><time>2026-05-06T23:04:49Z</time></trkpt>
<trkpt lat="50.018905" lon="4.541961"><time>2026-05-06T23:14:49Z</time></trkpt>
<trkpt lat="50.017699" lon="4.543129"><time>2026-05-06T23:24:49Z</time></trkpt>
<trkpt lat="50.015649" lon="4.548800"><time>2026-05-06T23:34:49Z</time></trkpt>
<trkpt lat="50.014162" lon="4.550915"><time>2026-05-06T23:44:49Z</time></trkpt>
<trkpt lat="50.013150" lon="4.551617"><time>2026-05-06T23:54:49Z</time></trkpt>
<trkpt lat="50.012891" lon="4.551473"><time>2026-05-07T00:04:49Z</time></trkpt>
<trkpt lat="50.012788" lon="4.550925"><time>2026-05-07T00:14:49Z</time></trkpt>
<trkpt lat="50.013039" lon="4.550478"><time>2026-05-07T00:24:49Z</time></trkpt>
<trkpt lat="50.014543" lon="4.548768"><time>2026-05-07T00:34:49Z</time></trkpt>
<trkpt lat="50.015564" lon="4.545800"><time>2026-05-07T00:44:49Z</time></trkpt>
<trkpt lat="50.015738" lon="4.543680"><time>2026-05-07T00:54:49Z</time></trkpt>
<trkpt lat="50.014328" lon="4.542684"><time>2026-05-07T01:04:49Z</time></trkpt>
<trkpt lat="50.013717" lon="4.542709"><time>2026-05-07T01:14:49Z</time></trkpt>
<trkpt lat="50.013582" lon="4.542597"><time>2026-05-07T01:24:49Z</time></trkpt>
<trkpt lat="50.013879" lon="4.542166"><time>2026-05-07T01:34:49Z</time></trkpt>
<trkpt lat="50.014662" lon="4.542001"><time>2026-05-07T01:44:49Z</time></trkpt>
<trkpt lat="50.016235" lon="4.542300"><time>2026-05-07T01:54:49Z</time></trkpt>
<trkpt lat="50.017127" lon="4.540685"><time>2026-05-07T02:04:49Z</time></trkpt>
<trkpt lat="50.018523" lon="4.538848"><time>2026-05-07T02:14:49Z</time></trkpt>
<trkpt lat="50.019846" lon="4.538336"><time>2026-05-07T02:24:49Z</time></trkpt>
<trkpt lat="50.021072" lon="4.535829"><time>2026-05-07T02:34:49Z</time></trkpt>
<trkpt lat="50.022981" lon="4.534063"><time>2026-05-07T02:44:49Z</time></trkpt>
</trkseg>
</trk>
<trk>
<name>ncvpti10</name>
<cmt>v</cmt>
<desc>Petigny Chemin n°i10 </desc>
<link href="https://chemins.be/petigny/chemin/i10"/><trkseg>
<trkpt lat="50.059441" lon="4.531886"><time>2026-05-06T21:24:49Z</time></trkpt>
<trkpt lat="50.059289" lon="4.531424"><time>2026-05-06T21:34:49Z</time></trkpt>
</trkseg>
</trk>
<trk>
<name>ncvpti11</name>
<cmt>v</cmt>
<desc>Petigny Chemin n°i11 </desc>
<link href="https://chemins.be/petigny/chemin/i11"/><trkseg>
<trkpt lat="50.066112" lon="4.512033"><time>2026-05-06T21:24:49Z</time></trkpt>
<trkpt lat="50.065950" lon="4.512018"><time>2026-05-06T21:34:49Z</time></trkpt>
<trkpt lat="50.065626" lon="4.511892"><time>2026-05-06T21:44:49Z</time></trkpt>
<trkpt lat="50.065221" lon="4.512058"><time>2026-05-06T21:54:49Z</time></trkpt>
<trkpt lat="50.064333" lon="4.510826"><time>2026-05-06T22:04:49Z</time></trkpt>
</trkseg>
</trk>
<trk>
<name>ncvpti12</name>
<cmt>v</cmt>
<desc>Petigny Sentier n°i12 </desc>
<link href="https://chemins.be/petigny/sentier/i12"/><trkseg>
<trkpt lat="50.066102" lon="4.512326"><time>2026-05-06T21:24:49Z</time></trkpt>
<trkpt lat="50.066201" lon="4.512508"><time>2026-05-06T21:34:49Z</time></trkpt>
<trkpt lat="50.066228" lon="4.512662"><time>2026-05-06T21:44:49Z</time></trkpt>
<trkpt lat="50.066200" lon="4.512787"><time>2026-05-06T21:54:49Z</time></trkpt>
<trkpt lat="50.065902" lon="4.514127"><time>2026-05-06T22:04:49Z</time></trkpt>
<trkpt lat="50.065612" lon="4.516375"><time>2026-05-06T22:14:49Z</time></trkpt>
</trkseg>
</trk>
<trk>
<name>ncvpti13</name>
<cmt>v</cmt>
<desc>Petigny Chemin n°i13 </desc>
<link href="https://chemins.be/petigny/chemin/i13"/><trkseg>
<trkpt lat="50.065075" lon="4.513999"><time>2026-05-06T21:24:49Z</time></trkpt>
<trkpt lat="50.064479" lon="4.516441"><time>2026-05-06T21:34:49Z</time></trkpt>
<trkpt lat="50.064638" lon="4.517900"><time>2026-05-06T21:44:49Z</time></trkpt>
<trkpt lat="50.064408" lon="4.518880"><time>2026-05-06T21:54:49Z</time></trkpt>
<trkpt lat="50.063736" lon="4.520657"><time>2026-05-06T22:04:49Z</time></trkpt>
<trkpt lat="50.063691" lon="4.520713"><time>2026-05-06T22:14:49Z</time></trkpt>
<trkpt lat="50.062721" lon="4.519816"><time>2026-05-06T22:24:49Z</time></trkpt>
</trkseg>
</trk>
<trk>
<name>ncvpti14</name>
<cmt>r</cmt>
<desc>Petigny Chemin n°i14 Domaine des Bouvreuils</desc>
<link href="https://chemins.be/petigny/chemin/i14"/><trkseg>
<trkpt lat="50.062983" lon="4.525403"><time>2026-05-06T21:24:49Z</time></trkpt>
<trkpt lat="50.063396" lon="4.525838"><time>2026-05-06T21:34:49Z</time></trkpt>
<trkpt lat="50.063882" lon="4.525965"><time>2026-05-06T21:44:49Z</time></trkpt>
<trkpt lat="50.064195" lon="4.527153"><time>2026-05-06T21:54:49Z</time></trkpt>
<trkpt lat="50.064374" lon="4.527531"><time>2026-05-06T22:04:49Z</time></trkpt>
<trkpt lat="50.064419" lon="4.527671"><time>2026-05-06T22:14:49Z</time></trkpt>
<trkpt lat="50.064589" lon="4.528314"><time>2026-05-06T22:24:49Z</time></trkpt>
</trkseg></trk>
<trk>
<name>ncvpti14</name>
<cmt>v</cmt>
<desc>Petigny Chemin n°i14 Domaine des Bouvreuils</desc>
<link href="https://chemins.be/petigny/chemin/i14"/><trkseg>
<trkpt lat="50.064589" lon="4.528314"><time>2026-05-06T22:24:49Z</time></trkpt>
<trkpt lat="50.064741" lon="4.528591"><time>2026-05-06T22:34:49Z</time></trkpt>
<trkpt lat="50.065247" lon="4.529079"><time>2026-05-06T22:44:49Z</time></trkpt>
<trkpt lat="50.065567" lon="4.529943"><time>2026-05-06T22:54:49Z</time></trkpt>
<trkpt lat="50.065805" lon="4.531144"><time>2026-05-06T23:04:49Z</time></trkpt>
</trkseg>
</trk>
<trk>
<name>ncvpti15</name>
<cmt>r</cmt>
<desc>Petigny Chemin n°i15 Chemin de Notre-Dame de Foy / Chemin Notre Dame de Foix</desc>
<link href="https://chemins.be/petigny/chemin/i15"/><trkseg>
<trkpt lat="50.061391" lon="4.525747"><time>2026-05-06T21:24:49Z</time></trkpt>
<trkpt lat="50.062075" lon="4.525554"><time>2026-05-06T21:34:49Z</time></trkpt>
<trkpt lat="50.062534" lon="4.525472"><time>2026-05-06T21:44:49Z</time></trkpt>
<trkpt lat="50.063001" lon="4.525557"><time>2026-05-06T21:54:49Z</time></trkpt>
</trkseg>
</trk>
<trk>
<name>ncvpti16</name>
<cmt>v</cmt>
<desc>Petigny Sentier n°i16 Rue des Fontaines</desc>
<link href="https://chemins.be/petigny/sentier/i16"/><trkseg>
<trkpt lat="50.057263" lon="4.533107"><time>2026-05-06T21:24:49Z</time></trkpt>
<trkpt lat="50.057362" lon="4.533429"><time>2026-05-06T21:34:49Z</time></trkpt>
<trkpt lat="50.057326" lon="4.533624"><time>2026-05-06T21:44:49Z</time></trkpt>
<trkpt lat="50.057541" lon="4.534016"><time>2026-05-06T21:54:49Z</time></trkpt>
<trkpt lat="50.058290" lon="4.535205"><time>2026-05-06T22:04:49Z</time></trkpt>
<trkpt lat="50.058419" lon="4.536636"><time>2026-05-06T22:14:49Z</time></trkpt>
<trkpt lat="50.058619" lon="4.537143"><time>2026-05-06T22:24:49Z</time></trkpt>
<trkpt lat="50.058713" lon="4.537036"><time>2026-05-06T22:34:49Z</time></trkpt>
<trkpt lat="50.058867" lon="4.537201"><time>2026-05-06T22:44:49Z</time></trkpt>
</trkseg>
</trk>
<trk>
<name>ncvpti17</name>
<cmt>v</cmt>
<desc>Petigny Chemin n°i17 </desc>
<link href="https://chemins.be/petigny/chemin/i17"/><trkseg>
<trkpt lat="50.064043" lon="4.526007"><time>2026-05-06T21:24:49Z</time></trkpt>
<trkpt lat="50.064493" lon="4.526093"><time>2026-05-06T21:34:49Z</time></trkpt>
<trkpt lat="50.065248" lon="4.526235"><time>2026-05-06T21:44:49Z</time></trkpt>
<trkpt lat="50.066112" lon="4.525441"><time>2026-05-06T21:54:49Z</time></trkpt>
<trkpt lat="50.066847" lon="4.524826"><time>2026-05-06T22:04:49Z</time></trkpt>
<trkpt lat="50.067719" lon="4.523481"><time>2026-05-06T22:14:49Z</time></trkpt>
<trkpt lat="50.069574" lon="4.523081"><time>2026-05-06T22:24:49Z</time></trkpt>
</trkseg>
</trk>
<trk>
<name>ncvpti18</name>
<cmt>v</cmt>
<desc>Petigny Chemin n°i18 </desc>
<link href="https://chemins.be/petigny/chemin/i18"/><trkseg>
<trkpt lat="50.053098" lon="4.528652"><time>2026-05-06T21:24:49Z</time></trkpt>
<trkpt lat="50.053962" lon="4.527943"><time>2026-05-06T21:34:49Z</time></trkpt>
<trkpt lat="50.054031" lon="4.527604"><time>2026-05-06T21:44:49Z</time></trkpt>
<trkpt lat="50.053883" lon="4.526672"><time>2026-05-06T21:54:49Z</time></trkpt>
<trkpt lat="50.054099" lon="4.524971"><time>2026-05-06T22:04:49Z</time></trkpt>
<trkpt lat="50.053708" lon="4.523362"><time>2026-05-06T22:14:49Z</time></trkpt>
</trkseg>
</trk>
<trk>
<name>ncvpti19</name>
<cmt>v</cmt>
<desc>Petigny Chemin n°i19 </desc>
<link href="https://chemins.be/petigny/chemin/i19"/><trkseg>
<trkpt lat="50.033308" lon="4.554003"><time>2026-05-06T21:24:49Z</time></trkpt>
<trkpt lat="50.032572" lon="4.553233"><time>2026-05-06T21:34:49Z</time></trkpt>
<trkpt lat="50.030687" lon="4.550978"><time>2026-05-06T21:44:49Z</time></trkpt>
<trkpt lat="50.030599" lon="4.549973"><time>2026-05-06T21:54:49Z</time></trkpt>
<trkpt lat="50.029755" lon="4.549063"><time>2026-05-06T22:04:49Z</time></trkpt>
<trkpt lat="50.029109" lon="4.548181"><time>2026-05-06T22:14:49Z</time></trkpt>
<trkpt lat="50.028418" lon="4.547578"><time>2026-05-06T22:24:49Z</time></trkpt>
<trkpt lat="50.026461" lon="4.545729"><time>2026-05-06T22:34:49Z</time></trkpt>
<trkpt lat="50.025744" lon="4.544107"><time>2026-05-06T22:44:49Z</time></trkpt>
<trkpt lat="50.024928" lon="4.542555"><time>2026-05-06T22:54:49Z</time></trkpt>
<trkpt lat="50.024272" lon="4.542218"><time>2026-05-06T23:04:49Z</time></trkpt>
</trkseg>
</trk>
<trk>
<name>ncvpti2</name>
<cmt>v</cmt>
<desc>Petigny Chemin n°i2 </desc>
<link href="https://chemins.be/petigny/chemin/i2"/><trkseg>
<trkpt lat="50.031144" lon="4.545969"><time>2026-05-06T21:24:49Z</time></trkpt>
<trkpt lat="50.029055" lon="4.548139"><time>2026-05-06T21:34:49Z</time></trkpt>
<trkpt lat="50.026724" lon="4.549707"><time>2026-05-06T21:44:49Z</time></trkpt>
<trkpt lat="50.024862" lon="4.550272"><time>2026-05-06T21:54:49Z</time></trkpt>
<trkpt lat="50.023326" lon="4.549848"><time>2026-05-06T22:04:49Z</time></trkpt>
<trkpt lat="50.022657" lon="4.551687"><time>2026-05-06T22:14:49Z</time></trkpt>
<trkpt lat="50.022521" lon="4.552817"><time>2026-05-06T22:24:49Z</time></trkpt>
<trkpt lat="50.022420" lon="4.553989"><time>2026-05-06T22:34:49Z</time></trkpt>
</trkseg>
</trk>
<trk>
<name>ncvpti20</name>
<cmt>v</cmt>
<desc>Petigny Sentier n°i20 Rue Clos des Mésanges</desc>
<link href="https://chemins.be/petigny/sentier/i20"/><trkseg>
<trkpt lat="50.055990" lon="4.530715"><time>2026-05-06T21:24:49Z</time></trkpt>
<trkpt lat="50.055522" lon="4.530923"><time>2026-05-06T21:34:49Z</time></trkpt>
<trkpt lat="50.055217" lon="4.530545"><time>2026-05-06T21:44:49Z</time></trkpt>
<trkpt lat="50.055074" lon="4.530097"><time>2026-05-06T21:54:49Z</time></trkpt>
<trkpt lat="50.053871" lon="4.529144"><time>2026-05-06T22:04:49Z</time></trkpt>
<trkpt lat="50.053224" lon="4.528681"><time>2026-05-06T22:14:49Z</time></trkpt>
<trkpt lat="50.052829" lon="4.528526"><time>2026-05-06T22:24:49Z</time></trkpt>
<trkpt lat="50.052154" lon="4.528551"><time>2026-05-06T22:34:49Z</time></trkpt>
</trkseg>
</trk>
<trk>
<name>ncvpti21</name>
<cmt>r</cmt>
<desc>Petigny Chemin n°i21 Rue Clos des Mésanges</desc>
<link href="https://chemins.be/petigny/chemin/i21"/><trkseg>
<trkpt lat="50.055116" lon="4.532401"><time>2026-05-06T21:24:49Z</time></trkpt>
<trkpt lat="50.055655" lon="4.532627"><time>2026-05-06T21:34:49Z</time></trkpt>
</trkseg></trk>
<trk>
<name>ncvpti21</name>
<cmt>v</cmt>
<desc>Petigny Chemin n°i21 Rue Clos des Mésanges</desc>
<link href="https://chemins.be/petigny/chemin/i21"/><trkseg>
<trkpt lat="50.055655" lon="4.532627"><time>2026-05-06T21:34:49Z</time></trkpt>
<trkpt lat="50.055961" lon="4.532502"><time>2026-05-06T21:44:49Z</time></trkpt>
<trkpt lat="50.056295" lon="4.531623"><time>2026-05-06T21:54:49Z</time></trkpt>
<trkpt lat="50.056277" lon="4.531093"><time>2026-05-06T22:04:49Z</time></trkpt>
</trkseg>
</trk>
<trk>
<name>ncvpti22</name>
<cmt>v</cmt>
<desc>Petigny Chemin n°i22 </desc>
<link href="https://chemins.be/petigny/chemin/i22"/><trkseg>
<trkpt lat="50.050118" lon="4.531449"><time>2026-05-06T21:24:49Z</time></trkpt>
<trkpt lat="50.049877" lon="4.530177"><time>2026-05-06T21:34:49Z</time></trkpt>
</trkseg>
</trk>
<trk>
<name>ncvpti23</name>
<cmt>v</cmt>
<desc>Petigny Chemin n°i23 </desc>
<link href="https://chemins.be/petigny/chemin/i23"/><trkseg>
<trkpt lat="50.045737" lon="4.533765"><time>2026-05-06T21:24:49Z</time></trkpt>
<trkpt lat="50.046621" lon="4.537287"><time>2026-05-06T21:34:49Z</time></trkpt>
<trkpt lat="50.047988" lon="4.543044"><time>2026-05-06T21:44:49Z</time></trkpt>
</trkseg>
</trk>
<trk>
<name>ncvpti24</name>
<cmt>v</cmt>
<desc>Petigny Chemin n°i24 </desc>
<link href="https://chemins.be/petigny/chemin/i24"/><trkseg>
<trkpt lat="50.024406" lon="4.536678"><time>2026-05-06T21:24:49Z</time></trkpt>
<trkpt lat="50.025335" lon="4.535202"><time>2026-05-06T21:34:49Z</time></trkpt>
<trkpt lat="50.026217" lon="4.534950"><time>2026-05-06T21:44:49Z</time></trkpt>
<trkpt lat="50.028275" lon="4.535673"><time>2026-05-06T21:54:49Z</time></trkpt>
<trkpt lat="50.030195" lon="4.535959"><time>2026-05-06T22:04:49Z</time></trkpt>
<trkpt lat="50.031744" lon="4.534957"><time>2026-05-06T22:14:49Z</time></trkpt>
<trkpt lat="50.033168" lon="4.532912"><time>2026-05-06T22:24:49Z</time></trkpt>
<trkpt lat="50.037247" lon="4.529343"><time>2026-05-06T22:34:49Z</time></trkpt>
</trkseg>
</trk>
<trk>
<name>ncvpti25</name>
<cmt>v</cmt>
<desc>Petigny Sentier n°i25 </desc>
<link href="https://chemins.be/petigny/sentier/i25"/><trkseg>
<trkpt lat="50.054134" lon="4.524964"><time>2026-05-06T21:24:49Z</time></trkpt>
<trkpt lat="50.054650" lon="4.524732"><time>2026-05-06T21:34:49Z</time></trkpt>
</trkseg>
</trk>
<trk>
<name>ncvpti26</name>
<cmt>v</cmt>
<desc>Petigny Sentier n°i26 </desc>
<link href="https://chemins.be/petigny/sentier/i26"/><trkseg>
<trkpt lat="50.054911" lon="4.536897"><time>2026-05-06T21:24:49Z</time></trkpt>
<trkpt lat="50.054777" lon="4.536492"><time>2026-05-06T21:34:49Z</time></trkpt>
</trkseg>
</trk>
<trk>
<name>ncvpti27</name>
<cmt>v</cmt>
<desc>Petigny Chemin n°i27 </desc>
<link href="https://chemins.be/petigny/chemin/i27"/><trkseg>
<trkpt lat="50.055046" lon="4.537261"><time>2026-05-06T21:24:49Z</time></trkpt>
<trkpt lat="50.054415" lon="4.538473"><time>2026-05-06T21:34:49Z</time></trkpt>
<trkpt lat="50.053865" lon="4.539156"><time>2026-05-06T21:44:49Z</time></trkpt>
<trkpt lat="50.053628" lon="4.539588"><time>2026-05-06T21:54:49Z</time></trkpt>
<trkpt lat="50.053521" lon="4.541095"><time>2026-05-06T22:04:49Z</time></trkpt>
<trkpt lat="50.052780" lon="4.541922"><time>2026-05-06T22:14:49Z</time></trkpt>
</trkseg>
</trk>
<trk>
<name>ncvpti28</name>
<cmt>v</cmt>
<desc>Petigny Sentier n°i28 </desc>
<link href="https://chemins.be/petigny/sentier/i28"/><trkseg>
<trkpt lat="50.054478" lon="4.538446"><time>2026-05-06T21:24:49Z</time></trkpt>
<trkpt lat="50.054890" lon="4.539117"><time>2026-05-06T21:34:49Z</time></trkpt>
<trkpt lat="50.054997" lon="4.539970"><time>2026-05-06T21:44:49Z</time></trkpt>
<trkpt lat="50.055670" lon="4.540880"><time>2026-05-06T21:54:49Z</time></trkpt>
<trkpt lat="50.056162" lon="4.542041"><time>2026-05-06T22:04:49Z</time></trkpt>
</trkseg>
</trk>
<trk>
<name>ncvpti29</name>
<cmt>r</cmt>
<desc>Petigny Chemin n°i29 </desc>
<link href="https://chemins.be/petigny/chemin/i29"/><trkseg>
<trkpt lat="50.057093" lon="4.526473"><time>2026-05-06T21:24:49Z</time></trkpt>
<trkpt lat="50.057131" lon="4.525300"><time>2026-05-06T21:34:49Z</time></trkpt>
<trkpt lat="50.057818" lon="4.522146"><time>2026-05-06T21:44:49Z</time></trkpt>
<trkpt lat="50.058908" lon="4.520390"><time>2026-05-06T21:54:49Z</time></trkpt>
<trkpt lat="50.060761" lon="4.520215"><time>2026-05-06T22:04:49Z</time></trkpt>
<trkpt lat="50.062300" lon="4.518711"><time>2026-05-06T22:14:49Z</time></trkpt>
<trkpt lat="50.062454" lon="4.517518"><time>2026-05-06T22:24:49Z</time></trkpt>
<trkpt lat="50.063427" lon="4.513054"><time>2026-05-06T22:34:49Z</time></trkpt>
<trkpt lat="50.064342" lon="4.510589"><time>2026-05-06T22:44:49Z</time></trkpt>
<trkpt lat="50.064793" lon="4.509473"><time>2026-05-06T22:54:49Z</time></trkpt>
</trkseg>
</trk>
<trk>
<name>ncvpti3</name>
<cmt>v</cmt>
<desc>Petigny Chemin n°i3 Les Roches</desc>
<link href="https://chemins.be/petigny/chemin/i3"/><trkseg>
<trkpt lat="50.057073" lon="4.540089"><time>2026-05-06T21:24:49Z</time></trkpt>
<trkpt lat="50.056653" lon="4.538942"><time>2026-05-06T21:34:49Z</time></trkpt>
<trkpt lat="50.056447" lon="4.537838"><time>2026-05-06T21:44:49Z</time></trkpt>
<trkpt lat="50.056448" lon="4.537140"><time>2026-05-06T21:54:49Z</time></trkpt>
<trkpt lat="50.056557" lon="4.536777"><time>2026-05-06T22:04:49Z</time></trkpt>
</trkseg></trk>
<trk>
<name>ncvpti3</name>
<cmt>d</cmt>
<desc>Petigny Chemin n°i3 Les Roches</desc>
<link href="https://chemins.be/petigny/chemin/i3"/><trkseg>
<trkpt lat="50.056557" lon="4.536777"><time>2026-05-06T22:04:49Z</time></trkpt>
<trkpt lat="50.056738" lon="4.535926"><time>2026-05-06T22:14:49Z</time></trkpt>
</trkseg>
</trk>
<trk>
<name>ncvpti30</name>
<cmt>v</cmt>
<desc>Petigny Chemin n°i30 </desc>
<link href="https://chemins.be/petigny/chemin/i30"/><trkseg>
<trkpt lat="50.054565" lon="4.533740"><time>2026-05-06T21:24:49Z</time></trkpt>
<trkpt lat="50.054935" lon="4.533099"><time>2026-05-06T21:34:49Z</time></trkpt>
<trkpt lat="50.054926" lon="4.532694"><time>2026-05-06T21:44:49Z</time></trkpt>
</trkseg>
</trk>
<trk>
<name>ncvpti31</name>
<cmt>v</cmt>
<desc>Petigny Chemin n°i31 </desc>
<link href="https://chemins.be/petigny/chemin/i31"/><trkseg>
<trkpt lat="50.054058" lon="4.536559"><time>2026-05-06T21:24:49Z</time></trkpt>
<trkpt lat="50.053662" lon="4.536669"><time>2026-05-06T21:34:49Z</time></trkpt>
<trkpt lat="50.052969" lon="4.537281"><time>2026-05-06T21:44:49Z</time></trkpt>
<trkpt lat="50.051684" lon="4.537025"><time>2026-05-06T21:54:49Z</time></trkpt>
<trkpt lat="50.050291" lon="4.536685"><time>2026-05-06T22:04:49Z</time></trkpt>
<trkpt lat="50.046630" lon="4.537273"><time>2026-05-06T22:14:49Z</time></trkpt>
</trkseg>
</trk>
<trk>
<name>ncvpti32</name>
<cmt>r</cmt>
<desc>Petigny Chemin n°i32 Rue Reposoir</desc>
<link href="https://chemins.be/petigny/chemin/i32"/><trkseg>
<trkpt lat="50.054462" lon="4.537049"><time>2026-05-06T21:24:49Z</time></trkpt>
<trkpt lat="50.054381" lon="4.536839"><time>2026-05-06T21:34:49Z</time></trkpt>
<trkpt lat="50.053645" lon="4.536195"><time>2026-05-06T21:44:49Z</time></trkpt>
<trkpt lat="50.053250" lon="4.535718"><time>2026-05-06T21:54:49Z</time></trkpt>
<trkpt lat="50.053062" lon="4.535397"><time>2026-05-06T22:04:49Z</time></trkpt>
</trkseg>
</trk>
<trk>
<name>ncvpti33</name>
<cmt>v</cmt>
<desc>Petigny Chemin n°i33 </desc>
<link href="https://chemins.be/petigny/chemin/i33"/><trkseg>
<trkpt lat="50.037152" lon="4.526295"><time>2026-05-06T21:24:49Z</time></trkpt>
<trkpt lat="50.036540" lon="4.526587"><time>2026-05-06T21:34:49Z</time></trkpt>
<trkpt lat="50.035937" lon="4.527045"><time>2026-05-06T21:44:49Z</time></trkpt>
</trkseg>
</trk>
<trk>
<name>ncvpti34</name>
<cmt>v</cmt>
<desc>Petigny Sentier n°i34 </desc>
<link href="https://chemins.be/petigny/sentier/i34"/><trkseg>
<trkpt lat="50.037805" lon="4.528629"><time>2026-05-06T21:24:49Z</time></trkpt>
<trkpt lat="50.037301" lon="4.529283"><time>2026-05-06T21:34:49Z</time></trkpt>
<trkpt lat="50.036442" lon="4.532700"><time>2026-05-06T21:44:49Z</time></trkpt>
<trkpt lat="50.035974" lon="4.533006"><time>2026-05-06T21:54:49Z</time></trkpt>
<trkpt lat="50.035676" lon="4.533884"><time>2026-05-06T22:04:49Z</time></trkpt>
<trkpt lat="50.035136" lon="4.533854"><time>2026-05-06T22:14:49Z</time></trkpt>
<trkpt lat="50.033049" lon="4.534866"><time>2026-05-06T22:24:49Z</time></trkpt>
<trkpt lat="50.031402" lon="4.536158"><time>2026-05-06T22:34:49Z</time></trkpt>
<trkpt lat="50.030467" lon="4.535904"><time>2026-05-06T22:44:49Z</time></trkpt>
</trkseg>
</trk>
<trk>
<name>ncvpti35</name>
<cmt>v</cmt>
<desc>Petigny Chemin n°i35 </desc>
<link href="https://chemins.be/petigny/chemin/i35"/><trkseg>
<trkpt lat="50.041242" lon="4.540375"><time>2026-05-06T21:24:49Z</time></trkpt>
<trkpt lat="50.040673" lon="4.541540"><time>2026-05-06T21:34:49Z</time></trkpt>
<trkpt lat="50.040631" lon="4.542660"><time>2026-05-06T21:44:49Z</time></trkpt>
<trkpt lat="50.040638" lon="4.542893"><time>2026-05-06T21:54:49Z</time></trkpt>
<trkpt lat="50.040695" lon="4.543100"><time>2026-05-06T22:04:49Z</time></trkpt>
<trkpt lat="50.040770" lon="4.543247"><time>2026-05-06T22:14:49Z</time></trkpt>
<trkpt lat="50.040881" lon="4.543368"><time>2026-05-06T22:24:49Z</time></trkpt>
<trkpt lat="50.041007" lon="4.543522"><time>2026-05-06T22:34:49Z</time></trkpt>
<trkpt lat="50.041108" lon="4.543653"><time>2026-05-06T22:44:49Z</time></trkpt>
<trkpt lat="50.041332" lon="4.544121"><time>2026-05-06T22:54:49Z</time></trkpt>
<trkpt lat="50.041574" lon="4.545128"><time>2026-05-06T23:04:49Z</time></trkpt>
<trkpt lat="50.041595" lon="4.546016"><time>2026-05-06T23:14:49Z</time></trkpt>
<trkpt lat="50.041375" lon="4.546721"><time>2026-05-06T23:24:49Z</time></trkpt>
<trkpt lat="50.041030" lon="4.547395"><time>2026-05-06T23:34:49Z</time></trkpt>
<trkpt lat="50.040949" lon="4.547781"><time>2026-05-06T23:44:49Z</time></trkpt>
<trkpt lat="50.041129" lon="4.548358"><time>2026-05-06T23:54:49Z</time></trkpt>
<trkpt lat="50.042063" lon="4.549124"><time>2026-05-07T00:04:49Z</time></trkpt>
<trkpt lat="50.042454" lon="4.549334"><time>2026-05-07T00:14:49Z</time></trkpt>
</trkseg>
</trk>
<trk>
<name>ncvpti36</name>
<cmt>v</cmt>
<desc>Petigny Chemin n°i36 </desc>
<link href="https://chemins.be/petigny/chemin/i36"/><trkseg>
<trkpt lat="50.013163" lon="4.551626"><time>2026-05-06T21:24:49Z</time></trkpt>
<trkpt lat="50.012988" lon="4.553601"><time>2026-05-06T21:34:49Z</time></trkpt>
<trkpt lat="50.014009" lon="4.554573"><time>2026-05-06T21:44:49Z</time></trkpt>
<trkpt lat="50.017189" lon="4.559709"><time>2026-05-06T21:54:49Z</time></trkpt>
</trkseg>
</trk>
<trk>
<name>ncvpti37</name>
<cmt>v</cmt>
<desc>Petigny Chemin n°i37 </desc>
<link href="https://chemins.be/petigny/chemin/i37"/><trkseg>
<trkpt lat="50.020550" lon="4.558605"><time>2026-05-06T21:24:49Z</time></trkpt>
<trkpt lat="50.018111" lon="4.560281"><time>2026-05-06T21:34:49Z</time></trkpt>
<trkpt lat="50.017633" lon="4.560195"><time>2026-05-06T21:44:49Z</time></trkpt>
<trkpt lat="50.017050" lon="4.559623"><time>2026-05-06T21:54:49Z</time></trkpt>
<trkpt lat="50.016116" lon="4.559541"><time>2026-05-06T22:04:49Z</time></trkpt>
<trkpt lat="50.015275" lon="4.561257"><time>2026-05-06T22:14:49Z</time></trkpt>
<trkpt lat="50.014903" lon="4.564455"><time>2026-05-06T22:24:49Z</time></trkpt>
<trkpt lat="50.015840" lon="4.566965"><time>2026-05-06T22:34:49Z</time></trkpt>
<trkpt lat="50.015406" lon="4.568231"><time>2026-05-06T22:44:49Z</time></trkpt>
<trkpt lat="50.015013" lon="4.568639"><time>2026-05-06T22:54:49Z</time></trkpt>
<trkpt lat="50.014751" lon="4.568639"><time>2026-05-06T23:04:49Z</time></trkpt>
<trkpt lat="50.009059" lon="4.571342"><time>2026-05-06T23:14:49Z</time></trkpt>
</trkseg>
</trk>
<trk>
<name>ncvpti38</name>
<cmt>v</cmt>
<desc>Petigny Chemin n°i38 </desc>
<link href="https://chemins.be/petigny/chemin/i38"/><trkseg>
<trkpt lat="50.028460" lon="4.535794"><time>2026-05-06T21:24:49Z</time></trkpt>
<trkpt lat="50.027008" lon="4.537740"><time>2026-05-06T21:34:49Z</time></trkpt>
<trkpt lat="50.026732" lon="4.541874"><time>2026-05-06T21:44:49Z</time></trkpt>
<trkpt lat="50.026392" lon="4.542947"><time>2026-05-06T21:54:49Z</time></trkpt>
<trkpt lat="50.025712" lon="4.544106"><time>2026-05-06T22:04:49Z</time></trkpt>
</trkseg>
</trk>
<trk>
<name>ncvpti39</name>
<cmt>v</cmt>
<desc>Petigny Sentier n°i39 </desc>
<link href="https://chemins.be/petigny/sentier/i39"/><trkseg>
<trkpt lat="50.060354" lon="4.530372"><time>2026-05-06T21:24:49Z</time></trkpt>
<trkpt lat="50.060161" lon="4.530154"><time>2026-05-06T21:34:49Z</time></trkpt>
<trkpt lat="50.059975" lon="4.529403"><time>2026-05-06T21:44:49Z</time></trkpt>
</trkseg>
</trk>
<trk>
<name>ncvpti4</name>
<cmt>v</cmt>
<desc>Petigny Sentier n°i4 </desc>
<link href="https://chemins.be/petigny/sentier/i4"/><trkseg>
<trkpt lat="50.055811" lon="4.536872"><time>2026-05-06T21:24:49Z</time></trkpt>
<trkpt lat="50.055919" lon="4.536733"><time>2026-05-06T21:34:49Z</time></trkpt>
<trkpt lat="50.056512" lon="4.536973"><time>2026-05-06T21:44:49Z</time></trkpt>
<trkpt lat="50.056593" lon="4.536763"><time>2026-05-06T21:54:49Z</time></trkpt>
<trkpt lat="50.056935" lon="4.536374"><time>2026-05-06T22:04:49Z</time></trkpt>
<trkpt lat="50.057053" lon="4.535606"><time>2026-05-06T22:14:49Z</time></trkpt>
<trkpt lat="50.057242" lon="4.535411"><time>2026-05-06T22:24:49Z</time></trkpt>
<trkpt lat="50.057324" lon="4.534909"><time>2026-05-06T22:34:49Z</time></trkpt>
<trkpt lat="50.057239" lon="4.534485"><time>2026-05-06T22:44:49Z</time></trkpt>
<trkpt lat="50.057140" lon="4.534519"><time>2026-05-06T22:54:49Z</time></trkpt>
<trkpt lat="50.057201" lon="4.534258"><time>2026-05-06T23:04:49Z</time></trkpt>
<trkpt lat="50.057359" lon="4.534201"><time>2026-05-06T23:14:49Z</time></trkpt>
<trkpt lat="50.057635" lon="4.534396"><time>2026-05-06T23:24:49Z</time></trkpt>
<trkpt lat="50.057702" lon="4.534276"><time>2026-05-06T23:34:49Z</time></trkpt>
</trkseg>
</trk>
<trk>
<name>ncvpti40</name>
<cmt>v</cmt>
<desc>Petigny Sentier n°i40 </desc>
<link href="https://chemins.be/petigny/sentier/i40"/><trkseg>
<trkpt lat="50.054696" lon="4.529720"><time>2026-05-06T21:24:49Z</time></trkpt>
<trkpt lat="50.054485" lon="4.528568"><time>2026-05-06T21:34:49Z</time></trkpt>
<trkpt lat="50.054021" lon="4.527610"><time>2026-05-06T21:44:49Z</time></trkpt>
</trkseg>
</trk>
<trk>
<name>ncvpti41</name>
<cmt>v</cmt>
<desc>Petigny Sentier n°i41 </desc>
<link href="https://chemins.be/petigny/sentier/i41"/><trkseg>
<trkpt lat="50.053998" lon="4.526144"><time>2026-05-06T21:24:49Z</time></trkpt>
<trkpt lat="50.053401" lon="4.526158"><time>2026-05-06T21:34:49Z</time></trkpt>
<trkpt lat="50.053020" lon="4.525650"><time>2026-05-06T21:44:49Z</time></trkpt>
<trkpt lat="50.052919" lon="4.525707"><time>2026-05-06T21:54:49Z</time></trkpt>
<trkpt lat="50.052722" lon="4.527045"><time>2026-05-06T22:04:49Z</time></trkpt>
<trkpt lat="50.052818" lon="4.527875"><time>2026-05-06T22:14:49Z</time></trkpt>
<trkpt lat="50.052690" lon="4.528475"><time>2026-05-06T22:24:49Z</time></trkpt>
</trkseg>
</trk>
<trk>
<name>ncvpti42</name>
<cmt>v</cmt>
<desc>Petigny Chemin n°i42 </desc>
<link href="https://chemins.be/petigny/chemin/i42"/><trkseg>
<trkpt lat="50.049444" lon="4.525458"><time>2026-05-06T21:24:49Z</time></trkpt>
<trkpt lat="50.048744" lon="4.524470"><time>2026-05-06T21:34:49Z</time></trkpt>
<trkpt lat="50.048101" lon="4.524599"><time>2026-05-06T21:44:49Z</time></trkpt>
<trkpt lat="50.046843" lon="4.524234"><time>2026-05-06T21:54:49Z</time></trkpt>
<trkpt lat="50.045704" lon="4.521385"><time>2026-05-06T22:04:49Z</time></trkpt>
<trkpt lat="50.044841" lon="4.519769"><time>2026-05-06T22:14:49Z</time></trkpt>
<trkpt lat="50.045117" lon="4.518110"><time>2026-05-06T22:24:49Z</time></trkpt>
<trkpt lat="50.044547" lon="4.517623"><time>2026-05-06T22:34:49Z</time></trkpt>
</trkseg>
</trk>
<trk>
<name>ncvpti43</name>
<cmt>v</cmt>
<desc>Petigny Chemin n°i43 </desc>
<link href="https://chemins.be/petigny/chemin/i43"/><trkseg>
<trkpt lat="50.048047" lon="4.531885"><time>2026-05-06T21:24:49Z</time></trkpt>
<trkpt lat="50.047909" lon="4.531313"><time>2026-05-06T21:34:49Z</time></trkpt>
<trkpt lat="50.047468" lon="4.531256"><time>2026-05-06T21:44:49Z</time></trkpt>
<trkpt lat="50.046412" lon="4.526864"><time>2026-05-06T21:54:49Z</time></trkpt>
<trkpt lat="50.043582" lon="4.528295"><time>2026-05-06T22:04:49Z</time></trkpt>
<trkpt lat="50.042206" lon="4.528077"><time>2026-05-06T22:14:49Z</time></trkpt>
<trkpt lat="50.041093" lon="4.519426"><time>2026-05-06T22:24:49Z</time></trkpt>
</trkseg>
</trk>
<trk>
<name>ncvpti44</name>
<cmt>v</cmt>
<desc>Petigny Chemin n°i44 </desc>
<link href="https://chemins.be/petigny/chemin/i44"/><trkseg>
<trkpt lat="50.039206" lon="4.549811"><time>2026-05-06T21:24:49Z</time></trkpt>
<trkpt lat="50.038719" lon="4.551006"><time>2026-05-06T21:34:49Z</time></trkpt>
</trkseg>
</trk>
<trk>
<name>ncvpti45</name>
<cmt>v</cmt>
<desc>Petigny Chemin n°i45 </desc>
<link href="https://chemins.be/petigny/chemin/i45"/><trkseg>
<trkpt lat="50.061529" lon="4.529335"><time>2026-05-06T21:24:49Z</time></trkpt>
<trkpt lat="50.062466" lon="4.530696"><time>2026-05-06T21:34:49Z</time></trkpt>
<trkpt lat="50.062975" lon="4.531617"><time>2026-05-06T21:44:49Z</time></trkpt>
<trkpt lat="50.063714" lon="4.534056"><time>2026-05-06T21:54:49Z</time></trkpt>
<trkpt lat="50.063604" lon="4.534464"><time>2026-05-06T22:04:49Z</time></trkpt>
</trkseg>
</trk>
<trk>
<name>ncvpti46</name>
<cmt>v</cmt>
<desc>Petigny Sentier n°i46 </desc>
<link href="https://chemins.be/petigny/sentier/i46"/><trkseg>
<trkpt lat="50.064968" lon="4.522664"><time>2026-05-06T21:24:49Z</time></trkpt>
<trkpt lat="50.064848" lon="4.522127"><time>2026-05-06T21:34:49Z</time></trkpt>
<trkpt lat="50.064546" lon="4.520854"><time>2026-05-06T21:44:49Z</time></trkpt>
<trkpt lat="50.064821" lon="4.520153"><time>2026-05-06T21:54:49Z</time></trkpt>
<trkpt lat="50.064670" lon="4.517943"><time>2026-05-06T22:04:49Z</time></trkpt>
</trkseg>
</trk>
<trk>
<name>ncvpti47</name>
<cmt>v</cmt>
<desc>Petigny Sentier n°i47 </desc>
<link href="https://chemins.be/petigny/sentier/i47"/><trkseg>
<trkpt lat="50.052789" lon="4.541895"><time>2026-05-06T21:24:49Z</time></trkpt>
<trkpt lat="50.052774" lon="4.542024"><time>2026-05-06T21:34:49Z</time></trkpt>
<trkpt lat="50.052969" lon="4.542349"><time>2026-05-06T21:44:49Z</time></trkpt>
<trkpt lat="50.053932" lon="4.545341"><time>2026-05-06T21:54:49Z</time></trkpt>
</trkseg>
</trk>
<trk>
<name>ncvpti5</name>
<cmt>q</cmt>
<desc>Petigny Sentier n°i5 </desc>
<link href="https://chemins.be/petigny/sentier/i5"/><trkseg>
<trkpt lat="50.049606" lon="4.510866"><time>2026-05-06T21:24:49Z</time></trkpt>
<trkpt lat="50.049579" lon="4.511327"><time>2026-05-06T21:34:49Z</time></trkpt>
</trkseg>
</trk>
<trk>
<name>ncvpti6</name>
<cmt>r</cmt>
<desc>Petigny Chemin n°i6 Rue de la Vaucelle / Rue de l'Adujoir</desc>
<link href="https://chemins.be/petigny/chemin/i6"/><trkseg>
<trkpt lat="50.068413" lon="4.511746"><time>2026-05-06T21:24:49Z</time></trkpt>
<trkpt lat="50.067776" lon="4.511116"><time>2026-05-06T21:34:49Z</time></trkpt>
<trkpt lat="50.067407" lon="4.511003"><time>2026-05-06T21:44:49Z</time></trkpt>
<trkpt lat="50.066922" lon="4.511267"><time>2026-05-06T21:54:49Z</time></trkpt>
<trkpt lat="50.066527" lon="4.510623"><time>2026-05-06T22:04:49Z</time></trkpt>
<trkpt lat="50.066176" lon="4.510762"><time>2026-05-06T22:14:49Z</time></trkpt>
<trkpt lat="50.066050" lon="4.510957"><time>2026-05-06T22:24:49Z</time></trkpt>
<trkpt lat="50.066103" lon="4.511516"><time>2026-05-06T22:34:49Z</time></trkpt>
</trkseg></trk>
<trk>
<name>ncvpti6</name>
<cmt>v</cmt>
<desc>Petigny Chemin n°i6 Rue de la Vaucelle / Rue de l'Adujoir</desc>
<link href="https://chemins.be/petigny/chemin/i6"/><trkseg>
<trkpt lat="50.066103" lon="4.511516"><time>2026-05-06T22:34:49Z</time></trkpt>
<trkpt lat="50.066102" lon="4.512312"><time>2026-05-06T22:44:49Z</time></trkpt>
<trkpt lat="50.066011" lon="4.512940"><time>2026-05-06T22:54:49Z</time></trkpt>
</trkseg>
</trk>
<trk>
<name>ncvpti7</name>
<cmt>q</cmt>
<desc>Petigny Chemin n°i7 </desc>
<link href="https://chemins.be/petigny/chemin/i7"/><trkseg>
<trkpt lat="50.067677" lon="4.511325"><time>2026-05-06T21:24:49Z</time></trkpt>
<trkpt lat="50.067852" lon="4.514999"><time>2026-05-06T21:34:49Z</time></trkpt>
</trkseg>
</trk>
<trk>
<name>ncvpti8</name>
<cmt>r</cmt>
<desc>Petigny Chemin n°i8 Rue des Bouvreuils / Domaine des Bouvreuils</desc>
<link href="https://chemins.be/petigny/chemin/i8"/><trkseg>
<trkpt lat="50.062472" lon="4.543404"><time>2026-05-06T21:24:49Z</time></trkpt>
<trkpt lat="50.061600" lon="4.543443"><time>2026-05-06T21:34:49Z</time></trkpt>
<trkpt lat="50.061024" lon="4.543497"><time>2026-05-06T21:44:49Z</time></trkpt>
<trkpt lat="50.060457" lon="4.543956"><time>2026-05-06T21:54:49Z</time></trkpt>
<trkpt lat="50.060268" lon="4.544234"><time>2026-05-06T22:04:49Z</time></trkpt>
<trkpt lat="50.059998" lon="4.544415"><time>2026-05-06T22:14:49Z</time></trkpt>
<trkpt lat="50.059532" lon="4.543380"><time>2026-05-06T22:24:49Z</time></trkpt>
</trkseg>
</trk>
<trk>
<name>ncvpti9</name>
<cmt>v</cmt>
<desc>Petigny Chemin n°i9 Domaine des Bouvreuils</desc>
<link href="https://chemins.be/petigny/chemin/i9"/><trkseg>
<trkpt lat="50.060036" lon="4.542795"><time>2026-05-06T21:24:49Z</time></trkpt>
<trkpt lat="50.059514" lon="4.543296"><time>2026-05-06T21:34:49Z</time></trkpt>
<trkpt lat="50.058632" lon="4.544047"><time>2026-05-06T21:44:49Z</time></trkpt>
</trkseg>
</trk>
<trk>
<name>ncvptp1</name>
<cmt>v</cmt>
<desc>Petigny Chemin particulier n°p1 </desc>
<link href="https://chemins.be/petigny/chemin/p1"/><trkseg>
<trkpt lat="50.066165" lon="4.532663"><time>2026-05-06T21:24:49Z</time></trkpt>
<trkpt lat="50.065812" lon="4.531187"><time>2026-05-06T21:34:49Z</time></trkpt>
<trkpt lat="50.065871" lon="4.530385"><time>2026-05-06T21:44:49Z</time></trkpt>
<trkpt lat="50.066290" lon="4.529605"><time>2026-05-06T21:54:49Z</time></trkpt>
<trkpt lat="50.065533" lon="4.526176"><time>2026-05-06T22:04:49Z</time></trkpt>
<trkpt lat="50.065008" lon="4.522743"><time>2026-05-06T22:14:49Z</time></trkpt>
</trkseg>
</trk>
<trk>
<name>ncvptp2</name>
<cmt>q</cmt>
<desc>Petigny Chemin particulier n°p2 </desc>
<link href="https://chemins.be/petigny/chemin/p2"/><trkseg>
<trkpt lat="50.055946" lon="4.542543"><time>2026-05-06T21:24:49Z</time></trkpt>
<trkpt lat="50.056394" lon="4.543633"><time>2026-05-06T21:34:49Z</time></trkpt>
<trkpt lat="50.056456" lon="4.543857"><time>2026-05-06T21:44:49Z</time></trkpt>
<trkpt lat="50.056859" lon="4.545059"><time>2026-05-06T21:54:49Z</time></trkpt>
</trkseg>
</trk>
</gpx>